<?xml version="1.0" encoding="UTF-8" standalone="no" ?>
<gpx xmlns="http://www.topografix.com/GPX/1/1" xmlns:xsi="http://www.w3.org/2001/XMLSchema-instance" xsi:schemaLocation="http://www.topografix.com/GPX/1/1 http://www.topografix.com/GPX/1/1/gpx.xsd" version="1.1" creator="VisuGPX - https://www.visugpx.com">
  <metadata>
    <name>Ventoux</name>
    <desc><![CDATA[Départ Rémuzat Col d\'EY, col de Fontaube, col des Aires, Ventoux par Sault, descente sur Malaucène, Vaison la Romaine, dernier col de la croix rouge par Chateauneuf de la Bordette.]]></desc>
  </metadata>
  <trk>
    <name><![CDATA[ACTIVE LOG131434]]></name>
    <trkseg>
      <trkpt lat="44.0929" lon="5.40788">
        <ele>763.348</ele>
        <time>2013-05-06T11:14:33Z</time>
      </trkpt>
      <trkpt lat="44.0929" lon="5.40789">
        <ele>763.348</ele>
        <time>2013-05-06T11:14:34Z</time>
      </trkpt>
      <trkpt lat="44.0929" lon="5.4079">
        <ele>763.974</ele>
        <time>2013-05-06T11:14:36Z</time>
      </trkpt>
      <trkpt lat="44.09291" lon="5.40792">
        <ele>766.784</ele>
        <time>2013-05-06T11:14:49Z</time>
      </trkpt>
      <trkpt lat="44.09294" lon="5.40794">
        <ele>768.579</ele>
        <time>2013-05-06T11:15:08Z</time>
      </trkpt>
      <trkpt lat="44.09294" lon="5.40793">
        <ele>768.229</ele>
        <time>2013-05-06T11:15:24Z</time>
      </trkpt>
      <trkpt lat="44.09293" lon="5.40795">
        <ele>767.907</ele>
        <time>2013-05-06T11:16:22Z</time>
      </trkpt>
      <trkpt lat="44.0929" lon="5.40801">
        <ele>768.564</ele>
        <time>2013-05-06T11:16:28Z</time>
      </trkpt>
      <trkpt lat="44.09286" lon="5.40808">
        <ele>768.397</ele>
        <time>2013-05-06T11:16:32Z</time>
      </trkpt>
      <trkpt lat="44.09286" lon="5.40817">
        <ele>769.403</ele>
        <time>2013-05-06T11:16:36Z</time>
      </trkpt>
      <trkpt lat="44.09294" lon="5.40824">
        <ele>767.692</ele>
        <time>2013-05-06T11:16:40Z</time>
      </trkpt>
      <trkpt lat="44.09306" lon="5.40828">
        <ele>767.411</ele>
        <time>2013-05-06T11:16:43Z</time>
      </trkpt>
      <trkpt lat="44.09364" lon="5.40828">
        <ele>765.565</ele>
        <time>2013-05-06T11:16:53Z</time>
      </trkpt>
      <trkpt lat="44.09397" lon="5.40815">
        <ele>763.609</ele>
        <time>2013-05-06T11:16:59Z</time>
      </trkpt>
      <trkpt lat="44.0941" lon="5.40814">
        <ele>762.457</ele>
        <time>2013-05-06T11:17:01Z</time>
      </trkpt>
      <trkpt lat="44.09431" lon="5.40814">
        <ele>761.09</ele>
        <time>2013-05-06T11:17:04Z</time>
      </trkpt>
      <trkpt lat="44.09462" lon="5.40813">
        <ele>759.547</ele>
        <time>2013-05-06T11:17:08Z</time>
      </trkpt>
      <trkpt lat="44.09502" lon="5.40812">
        <ele>756.041</ele>
        <time>2013-05-06T11:17:13Z</time>
      </trkpt>
      <trkpt lat="44.09532" lon="5.40811">
        <ele>754.861</ele>
        <time>2013-05-06T11:17:17Z</time>
      </trkpt>
      <trkpt lat="44.09546" lon="5.40811">
        <ele>753.697</ele>
        <time>2013-05-06T11:17:19Z</time>
      </trkpt>
      <trkpt lat="44.09582" lon="5.40809">
        <ele>750.741</ele>
        <time>2013-05-06T11:17:24Z</time>
      </trkpt>
      <trkpt lat="44.09624" lon="5.40807">
        <ele>747.677</ele>
        <time>2013-05-06T11:17:30Z</time>
      </trkpt>
      <trkpt lat="44.09639" lon="5.40807">
        <ele>746.876</ele>
        <time>2013-05-06T11:17:32Z</time>
      </trkpt>
      <trkpt lat="44.09671" lon="5.40814">
        <ele>743.479</ele>
        <time>2013-05-06T11:17:36Z</time>
      </trkpt>
      <trkpt lat="44.09734" lon="5.40835">
        <ele>739.82</ele>
        <time>2013-05-06T11:17:44Z</time>
      </trkpt>
      <trkpt lat="44.0976" lon="5.40844">
        <ele>736.8</ele>
        <time>2013-05-06T11:17:47Z</time>
      </trkpt>
      <trkpt lat="44.09814" lon="5.40866">
        <ele>732.972</ele>
        <time>2013-05-06T11:17:53Z</time>
      </trkpt>
      <trkpt lat="44.09866" lon="5.40888">
        <ele>730.427</ele>
        <time>2013-05-06T11:17:59Z</time>
      </trkpt>
      <trkpt lat="44.09903" lon="5.40904">
        <ele>727.382</ele>
        <time>2013-05-06T11:18:03Z</time>
      </trkpt>
      <trkpt lat="44.09942" lon="5.4092">
        <ele>725.88</ele>
        <time>2013-05-06T11:18:08Z</time>
      </trkpt>
      <trkpt lat="44.09949" lon="5.40922">
        <ele>725.658</ele>
        <time>2013-05-06T11:18:09Z</time>
      </trkpt>
      <trkpt lat="44.09966" lon="5.40914">
        <ele>724.356</ele>
        <time>2013-05-06T11:18:15Z</time>
      </trkpt>
      <trkpt lat="44.09965" lon="5.40902">
        <ele>722.264</ele>
        <time>2013-05-06T11:18:18Z</time>
      </trkpt>
      <trkpt lat="44.09963" lon="5.40895">
        <ele>721.412</ele>
        <time>2013-05-06T11:18:19Z</time>
      </trkpt>
      <trkpt lat="44.09923" lon="5.4085">
        <ele>717.029</ele>
        <time>2013-05-06T11:18:26Z</time>
      </trkpt>
      <trkpt lat="44.09909" lon="5.40834">
        <ele>713.548</ele>
        <time>2013-05-06T11:18:28Z</time>
      </trkpt>
      <trkpt lat="44.09895" lon="5.40817">
        <ele>712.673</ele>
        <time>2013-05-06T11:18:30Z</time>
      </trkpt>
      <trkpt lat="44.09872" lon="5.40791">
        <ele>708.851</ele>
        <time>2013-05-06T11:18:33Z</time>
      </trkpt>
      <trkpt lat="44.09823" lon="5.40737">
        <ele>705.074</ele>
        <time>2013-05-06T11:18:39Z</time>
      </trkpt>
      <trkpt lat="44.09805" lon="5.40719">
        <ele>704.014</ele>
        <time>2013-05-06T11:18:41Z</time>
      </trkpt>
      <trkpt lat="44.09778" lon="5.40691">
        <ele>700.891</ele>
        <time>2013-05-06T11:18:44Z</time>
      </trkpt>
      <trkpt lat="44.09743" lon="5.40655">
        <ele>700.71</ele>
        <time>2013-05-06T11:18:48Z</time>
      </trkpt>
      <trkpt lat="44.09723" lon="5.40613">
        <ele>700.253</ele>
        <time>2013-05-06T11:18:52Z</time>
      </trkpt>
      <trkpt lat="44.0973" lon="5.4058">
        <ele>701.757</ele>
        <time>2013-05-06T11:18:55Z</time>
      </trkpt>
      <trkpt lat="44.09737" lon="5.40563">
        <ele>702.43</ele>
        <time>2013-05-06T11:18:57Z</time>
      </trkpt>
      <trkpt lat="44.09759" lon="5.40531">
        <ele>705.982</ele>
        <time>2013-05-06T11:19:02Z</time>
      </trkpt>
      <trkpt lat="44.09774" lon="5.40509">
        <ele>708.019</ele>
        <time>2013-05-06T11:19:07Z</time>
      </trkpt>
      <trkpt lat="44.09787" lon="5.4049">
        <ele>708.972</ele>
        <time>2013-05-06T11:19:14Z</time>
      </trkpt>
      <trkpt lat="44.0981" lon="5.40458">
        <ele>711.838</ele>
        <time>2013-05-06T11:19:25Z</time>
      </trkpt>
      <trkpt lat="44.0983" lon="5.40429">
        <ele>713.772</ele>
        <time>2013-05-06T11:19:35Z</time>
      </trkpt>
      <trkpt lat="44.09845" lon="5.40407">
        <ele>715.369</ele>
        <time>2013-05-06T11:19:43Z</time>
      </trkpt>
      <trkpt lat="44.09865" lon="5.40378">
        <ele>717.225</ele>
        <time>2013-05-06T11:19:54Z</time>
      </trkpt>
      <trkpt lat="44.09886" lon="5.40348">
        <ele>718.641</ele>
        <time>2013-05-06T11:20:05Z</time>
      </trkpt>
      <trkpt lat="44.09906" lon="5.40313">
        <ele>720.499</ele>
        <time>2013-05-06T11:20:17Z</time>
      </trkpt>
      <trkpt lat="44.09926" lon="5.4028">
        <ele>721.417</ele>
        <time>2013-05-06T11:20:28Z</time>
      </trkpt>
      <trkpt lat="44.09947" lon="5.40257">
        <ele>721.994</ele>
        <time>2013-05-06T11:20:37Z</time>
      </trkpt>
      <trkpt lat="44.09982" lon="5.4024">
        <ele>721.618</ele>
        <time>2013-05-06T11:20:47Z</time>
      </trkpt>
      <trkpt lat="44.10024" lon="5.4022">
        <ele>722.09</ele>
        <time>2013-05-06T11:20:59Z</time>
      </trkpt>
      <trkpt lat="44.10056" lon="5.40205">
        <ele>722.677</ele>
        <time>2013-05-06T11:21:08Z</time>
      </trkpt>
      <trkpt lat="44.10101" lon="5.40184">
        <ele>721.916</ele>
        <time>2013-05-06T11:21:21Z</time>
      </trkpt>
      <trkpt lat="44.1014" lon="5.40163">
        <ele>722.504</ele>
        <time>2013-05-06T11:21:32Z</time>
      </trkpt>
      <trkpt lat="44.10178" lon="5.40141">
        <ele>722.521</ele>
        <time>2013-05-06T11:21:42Z</time>
      </trkpt>
      <trkpt lat="44.10239" lon="5.40106">
        <ele>723.963</ele>
        <time>2013-05-06T11:21:58Z</time>
      </trkpt>
      <trkpt lat="44.10293" lon="5.40075">
        <ele>724.577</ele>
        <time>2013-05-06T11:22:12Z</time>
      </trkpt>
      <trkpt lat="44.10339" lon="5.40049">
        <ele>726.845</ele>
        <time>2013-05-06T11:22:24Z</time>
      </trkpt>
      <trkpt lat="44.10364" lon="5.40031">
        <ele>726.789</ele>
        <time>2013-05-06T11:22:31Z</time>
      </trkpt>
      <trkpt lat="44.10401" lon="5.39986">
        <ele>727.605</ele>
        <time>2013-05-06T11:22:43Z</time>
      </trkpt>
      <trkpt lat="44.10439" lon="5.39938">
        <ele>728.094</ele>
        <time>2013-05-06T11:22:55Z</time>
      </trkpt>
      <trkpt lat="44.10474" lon="5.39917">
        <ele>728.176</ele>
        <time>2013-05-06T11:23:04Z</time>
      </trkpt>
      <trkpt lat="44.1051" lon="5.39919">
        <ele>728.122</ele>
        <time>2013-05-06T11:23:12Z</time>
      </trkpt>
      <trkpt lat="44.10548" lon="5.39938">
        <ele>729.04</ele>
        <time>2013-05-06T11:23:21Z</time>
      </trkpt>
      <trkpt lat="44.10599" lon="5.39974">
        <ele>730.167</ele>
        <time>2013-05-06T11:23:34Z</time>
      </trkpt>
      <trkpt lat="44.10635" lon="5.4">
        <ele>732.704</ele>
        <time>2013-05-06T11:23:45Z</time>
      </trkpt>
      <trkpt lat="44.10663" lon="5.4002">
        <ele>735.129</ele>
        <time>2013-05-06T11:23:55Z</time>
      </trkpt>
      <trkpt lat="44.10676" lon="5.40029">
        <ele>736.96</ele>
        <time>2013-05-06T11:24:00Z</time>
      </trkpt>
      <trkpt lat="44.10703" lon="5.40044">
        <ele>738.094</ele>
        <time>2013-05-06T11:24:10Z</time>
      </trkpt>
      <trkpt lat="44.10727" lon="5.40054">
        <ele>740.482</ele>
        <time>2013-05-06T11:24:19Z</time>
      </trkpt>
      <trkpt lat="44.1075" lon="5.40063">
        <ele>741.711</ele>
        <time>2013-05-06T11:24:27Z</time>
      </trkpt>
      <trkpt lat="44.10783" lon="5.40076">
        <ele>743.615</ele>
        <time>2013-05-06T11:24:39Z</time>
      </trkpt>
      <trkpt lat="44.10809" lon="5.40076">
        <ele>745.017</ele>
        <time>2013-05-06T11:24:49Z</time>
      </trkpt>
      <trkpt lat="44.10818" lon="5.40072">
        <ele>746.283</ele>
        <time>2013-05-06T11:24:52Z</time>
      </trkpt>
      <trkpt lat="44.10837" lon="5.40045">
        <ele>747.132</ele>
        <time>2013-05-06T11:25:02Z</time>
      </trkpt>
      <trkpt lat="44.1087" lon="5.39998">
        <ele>750.719</ele>
        <time>2013-05-06T11:25:18Z</time>
      </trkpt>
      <trkpt lat="44.10899" lon="5.39958">
        <ele>752.398</ele>
        <time>2013-05-06T11:25:32Z</time>
      </trkpt>
      <trkpt lat="44.10923" lon="5.39932">
        <ele>754.412</ele>
        <time>2013-05-06T11:25:43Z</time>
      </trkpt>
      <trkpt lat="44.10957" lon="5.39909">
        <ele>756.816</ele>
        <time>2013-05-06T11:25:56Z</time>
      </trkpt>
      <trkpt lat="44.10985" lon="5.3989">
        <ele>758.773</ele>
        <time>2013-05-06T11:26:07Z</time>
      </trkpt>
      <trkpt lat="44.11014" lon="5.39871">
        <ele>760.472</ele>
        <time>2013-05-06T11:26:18Z</time>
      </trkpt>
      <trkpt lat="44.11041" lon="5.39852">
        <ele>761.644</ele>
        <time>2013-05-06T11:26:29Z</time>
      </trkpt>
      <trkpt lat="44.11061" lon="5.39839">
        <ele>762.346</ele>
        <time>2013-05-06T11:26:37Z</time>
      </trkpt>
      <trkpt lat="44.11095" lon="5.39812">
        <ele>764.733</ele>
        <time>2013-05-06T11:26:52Z</time>
      </trkpt>
      <trkpt lat="44.11123" lon="5.39789">
        <ele>767.367</ele>
        <time>2013-05-06T11:27:04Z</time>
      </trkpt>
      <trkpt lat="44.11151" lon="5.39766">
        <ele>769.482</ele>
        <time>2013-05-06T11:27:16Z</time>
      </trkpt>
      <trkpt lat="44.11191" lon="5.39749">
        <ele>772.281</ele>
        <time>2013-05-06T11:27:31Z</time>
      </trkpt>
      <trkpt lat="44.11221" lon="5.39745">
        <ele>774.159</ele>
        <time>2013-05-06T11:27:42Z</time>
      </trkpt>
      <trkpt lat="44.11241" lon="5.39743">
        <ele>775.757</ele>
        <time>2013-05-06T11:27:50Z</time>
      </trkpt>
      <trkpt lat="44.11261" lon="5.3974">
        <ele>776.583</ele>
        <time>2013-05-06T11:27:58Z</time>
      </trkpt>
      <trkpt lat="44.11279" lon="5.39736">
        <ele>778.593</ele>
        <time>2013-05-06T11:28:05Z</time>
      </trkpt>
      <trkpt lat="44.11307" lon="5.3973">
        <ele>780.211</ele>
        <time>2013-05-06T11:28:15Z</time>
      </trkpt>
      <trkpt lat="44.11333" lon="5.39729">
        <ele>781.187</ele>
        <time>2013-05-06T11:28:25Z</time>
      </trkpt>
      <trkpt lat="44.11363" lon="5.39729">
        <ele>782.999</ele>
        <time>2013-05-06T11:28:36Z</time>
      </trkpt>
      <trkpt lat="44.1139" lon="5.39727">
        <ele>784.171</ele>
        <time>2013-05-06T11:28:46Z</time>
      </trkpt>
      <trkpt lat="44.11415" lon="5.39713">
        <ele>785.656</ele>
        <time>2013-05-06T11:28:56Z</time>
      </trkpt>
      <trkpt lat="44.11436" lon="5.39697">
        <ele>787.084</ele>
        <time>2013-05-06T11:29:05Z</time>
      </trkpt>
      <trkpt lat="44.11443" lon="5.39673">
        <ele>788.142</ele>
        <time>2013-05-06T11:29:12Z</time>
      </trkpt>
      <trkpt lat="44.11431" lon="5.39638">
        <ele>790.117</ele>
        <time>2013-05-06T11:29:22Z</time>
      </trkpt>
      <trkpt lat="44.11413" lon="5.39589">
        <ele>792.716</ele>
        <time>2013-05-06T11:29:36Z</time>
      </trkpt>
      <trkpt lat="44.114" lon="5.39554">
        <ele>793.918</ele>
        <time>2013-05-06T11:29:46Z</time>
      </trkpt>
      <trkpt lat="44.11385" lon="5.39521">
        <ele>795.807</ele>
        <time>2013-05-06T11:29:56Z</time>
      </trkpt>
      <trkpt lat="44.11367" lon="5.39491">
        <ele>797.773</ele>
        <time>2013-05-06T11:30:06Z</time>
      </trkpt>
      <trkpt lat="44.11352" lon="5.39475">
        <ele>799.224</ele>
        <time>2013-05-06T11:30:13Z</time>
      </trkpt>
      <trkpt lat="44.11335" lon="5.39463">
        <ele>800.965</ele>
        <time>2013-05-06T11:30:20Z</time>
      </trkpt>
      <trkpt lat="44.11311" lon="5.39447">
        <ele>801.979</ele>
        <time>2013-05-06T11:30:29Z</time>
      </trkpt>
      <trkpt lat="44.11276" lon="5.39424">
        <ele>802.611</ele>
        <time>2013-05-06T11:30:42Z</time>
      </trkpt>
      <trkpt lat="44.11247" lon="5.39405">
        <ele>804.797</ele>
        <time>2013-05-06T11:30:53Z</time>
      </trkpt>
      <trkpt lat="44.11211" lon="5.39389">
        <ele>806.995</ele>
        <time>2013-05-06T11:31:06Z</time>
      </trkpt>
      <trkpt lat="44.11187" lon="5.39373">
        <ele>807.59</ele>
        <time>2013-05-06T11:31:15Z</time>
      </trkpt>
      <trkpt lat="44.11182" lon="5.39349">
        <ele>808.972</ele>
        <time>2013-05-06T11:31:21Z</time>
      </trkpt>
      <trkpt lat="44.11192" lon="5.39324">
        <ele>810.374</ele>
        <time>2013-05-06T11:31:28Z</time>
      </trkpt>
      <trkpt lat="44.11212" lon="5.39292">
        <ele>812.609</ele>
        <time>2013-05-06T11:31:39Z</time>
      </trkpt>
      <trkpt lat="44.11212" lon="5.39265">
        <ele>813.372</ele>
        <time>2013-05-06T11:31:46Z</time>
      </trkpt>
      <trkpt lat="44.11206" lon="5.39246">
        <ele>814.685</ele>
        <time>2013-05-06T11:31:52Z</time>
      </trkpt>
      <trkpt lat="44.11183" lon="5.39229">
        <ele>816.297</ele>
        <time>2013-05-06T11:32:00Z</time>
      </trkpt>
      <trkpt lat="44.11164" lon="5.39227">
        <ele>816.407</ele>
        <time>2013-05-06T11:32:07Z</time>
      </trkpt>
      <trkpt lat="44.11146" lon="5.39227">
        <ele>818.006</ele>
        <time>2013-05-06T11:32:15Z</time>
      </trkpt>
      <trkpt lat="44.11123" lon="5.39216">
        <ele>818.972</ele>
        <time>2013-05-06T11:32:23Z</time>
      </trkpt>
      <trkpt lat="44.11098" lon="5.39198">
        <ele>821.323</ele>
        <time>2013-05-06T11:32:33Z</time>
      </trkpt>
      <trkpt lat="44.11075" lon="5.39182">
        <ele>823.298</ele>
        <time>2013-05-06T11:32:42Z</time>
      </trkpt>
      <trkpt lat="44.11047" lon="5.39163">
        <ele>825.416</ele>
        <time>2013-05-06T11:32:53Z</time>
      </trkpt>
      <trkpt lat="44.11014" lon="5.39136">
        <ele>827.52</ele>
        <time>2013-05-06T11:33:07Z</time>
      </trkpt>
      <trkpt lat="44.10992" lon="5.39114">
        <ele>829.67</ele>
        <time>2013-05-06T11:33:17Z</time>
      </trkpt>
      <trkpt lat="44.10978" lon="5.39084">
        <ele>830.886</ele>
        <time>2013-05-06T11:33:26Z</time>
      </trkpt>
      <trkpt lat="44.10972" lon="5.3905">
        <ele>832.157</ele>
        <time>2013-05-06T11:33:34Z</time>
      </trkpt>
      <trkpt lat="44.1098" lon="5.38997">
        <ele>832.507</ele>
        <time>2013-05-06T11:33:46Z</time>
      </trkpt>
      <trkpt lat="44.10998" lon="5.38961">
        <ele>833.501</ele>
        <time>2013-05-06T11:33:56Z</time>
      </trkpt>
      <trkpt lat="44.11026" lon="5.38917">
        <ele>834.31</ele>
        <time>2013-05-06T11:34:09Z</time>
      </trkpt>
      <trkpt lat="44.11064" lon="5.38889">
        <ele>836.306</ele>
        <time>2013-05-06T11:34:22Z</time>
      </trkpt>
      <trkpt lat="44.11099" lon="5.38877">
        <ele>838.615</ele>
        <time>2013-05-06T11:34:33Z</time>
      </trkpt>
      <trkpt lat="44.11136" lon="5.38871">
        <ele>839.556</ele>
        <time>2013-05-06T11:34:44Z</time>
      </trkpt>
      <trkpt lat="44.11181" lon="5.38873">
        <ele>842.54</ele>
        <time>2013-05-06T11:34:57Z</time>
      </trkpt>
      <trkpt lat="44.11218" lon="5.38874">
        <ele>843.181</ele>
        <time>2013-05-06T11:35:08Z</time>
      </trkpt>
      <trkpt lat="44.11252" lon="5.38875">
        <ele>843.967</ele>
        <time>2013-05-06T11:35:18Z</time>
      </trkpt>
      <trkpt lat="44.11281" lon="5.38897">
        <ele>845.154</ele>
        <time>2013-05-06T11:35:28Z</time>
      </trkpt>
      <trkpt lat="44.11318" lon="5.38932">
        <ele>847.386</ele>
        <time>2013-05-06T11:35:41Z</time>
      </trkpt>
      <trkpt lat="44.11346" lon="5.38937">
        <ele>848.121</ele>
        <time>2013-05-06T11:35:50Z</time>
      </trkpt>
      <trkpt lat="44.11371" lon="5.38922">
        <ele>848.985</ele>
        <time>2013-05-06T11:35:58Z</time>
      </trkpt>
      <trkpt lat="44.11409" lon="5.38899">
        <ele>851.073</ele>
        <time>2013-05-06T11:36:11Z</time>
      </trkpt>
      <trkpt lat="44.11436" lon="5.38886">
        <ele>851.56</ele>
        <time>2013-05-06T11:36:21Z</time>
      </trkpt>
      <trkpt lat="44.11462" lon="5.38891">
        <ele>852.105</ele>
        <time>2013-05-06T11:36:29Z</time>
      </trkpt>
      <trkpt lat="44.11501" lon="5.389">
        <ele>853.417</ele>
        <time>2013-05-06T11:36:41Z</time>
      </trkpt>
      <trkpt lat="44.11518" lon="5.38891">
        <ele>853.695</ele>
        <time>2013-05-06T11:36:47Z</time>
      </trkpt>
      <trkpt lat="44.11536" lon="5.38859">
        <ele>853.826</ele>
        <time>2013-05-06T11:36:56Z</time>
      </trkpt>
      <trkpt lat="44.11567" lon="5.38803">
        <ele>855.523</ele>
        <time>2013-05-06T11:37:11Z</time>
      </trkpt>
      <trkpt lat="44.11593" lon="5.38763">
        <ele>858.274</ele>
        <time>2013-05-06T11:37:23Z</time>
      </trkpt>
      <trkpt lat="44.11619" lon="5.38741">
        <ele>860.312</ele>
        <time>2013-05-06T11:37:33Z</time>
      </trkpt>
      <trkpt lat="44.11644" lon="5.38725">
        <ele>861.646</ele>
        <time>2013-05-06T11:37:42Z</time>
      </trkpt>
      <trkpt lat="44.11667" lon="5.38712">
        <ele>863.383</ele>
        <time>2013-05-06T11:37:51Z</time>
      </trkpt>
      <trkpt lat="44.11692" lon="5.38694">
        <ele>865.59</ele>
        <time>2013-05-06T11:38:02Z</time>
      </trkpt>
      <trkpt lat="44.11717" lon="5.38676">
        <ele>866.933</ele>
        <time>2013-05-06T11:38:12Z</time>
      </trkpt>
      <trkpt lat="44.1175" lon="5.38649">
        <ele>870.164</ele>
        <time>2013-05-06T11:38:26Z</time>
      </trkpt>
      <trkpt lat="44.11768" lon="5.38621">
        <ele>872.594</ele>
        <time>2013-05-06T11:38:37Z</time>
      </trkpt>
      <trkpt lat="44.11768" lon="5.38604">
        <ele>873.763</ele>
        <time>2013-05-06T11:38:43Z</time>
      </trkpt>
      <trkpt lat="44.11757" lon="5.38582">
        <ele>875.052</ele>
        <time>2013-05-06T11:38:51Z</time>
      </trkpt>
      <trkpt lat="44.11741" lon="5.3855">
        <ele>876.28</ele>
        <time>2013-05-06T11:39:02Z</time>
      </trkpt>
      <trkpt lat="44.11725" lon="5.3851">
        <ele>878.066</ele>
        <time>2013-05-06T11:39:14Z</time>
      </trkpt>
      <trkpt lat="44.11715" lon="5.38468">
        <ele>879.768</ele>
        <time>2013-05-06T11:39:25Z</time>
      </trkpt>
      <trkpt lat="44.11716" lon="5.38465">
        <ele>879.371</ele>
        <time>2013-05-06T11:39:26Z</time>
      </trkpt>
      <trkpt lat="44.11724" lon="5.38419">
        <ele>881.497</ele>
        <time>2013-05-06T11:39:38Z</time>
      </trkpt>
      <trkpt lat="44.11734" lon="5.38394">
        <ele>882.957</ele>
        <time>2013-05-06T11:39:45Z</time>
      </trkpt>
      <trkpt lat="44.11756" lon="5.38364">
        <ele>883.458</ele>
        <time>2013-05-06T11:39:55Z</time>
      </trkpt>
      <trkpt lat="44.11774" lon="5.38343">
        <ele>884.701</ele>
        <time>2013-05-06T11:40:03Z</time>
      </trkpt>
      <trkpt lat="44.11792" lon="5.38326">
        <ele>887.423</ele>
        <time>2013-05-06T11:40:10Z</time>
      </trkpt>
      <trkpt lat="44.11794" lon="5.38324">
        <ele>887.422</ele>
        <time>2013-05-06T11:40:11Z</time>
      </trkpt>
      <trkpt lat="44.11808" lon="5.38311">
        <ele>888.324</ele>
        <time>2013-05-06T11:40:17Z</time>
      </trkpt>
      <trkpt lat="44.11825" lon="5.38295">
        <ele>889.357</ele>
        <time>2013-05-06T11:40:24Z</time>
      </trkpt>
      <trkpt lat="44.11843" lon="5.38277">
        <ele>889.992</ele>
        <time>2013-05-06T11:40:31Z</time>
      </trkpt>
      <trkpt lat="44.11867" lon="5.38254">
        <ele>893.105</ele>
        <time>2013-05-06T11:40:41Z</time>
      </trkpt>
      <trkpt lat="44.11888" lon="5.38234">
        <ele>894.166</ele>
        <time>2013-05-06T11:40:50Z</time>
      </trkpt>
      <trkpt lat="44.11899" lon="5.38205">
        <ele>895.903</ele>
        <time>2013-05-06T11:40:58Z</time>
      </trkpt>
      <trkpt lat="44.1191" lon="5.38173">
        <ele>897.779</ele>
        <time>2013-05-06T11:41:07Z</time>
      </trkpt>
      <trkpt lat="44.1192" lon="5.38144">
        <ele>898.506</ele>
        <time>2013-05-06T11:41:15Z</time>
      </trkpt>
      <trkpt lat="44.11931" lon="5.38109">
        <ele>899.643</ele>
        <time>2013-05-06T11:41:24Z</time>
      </trkpt>
      <trkpt lat="44.11939" lon="5.38086">
        <ele>901.559</ele>
        <time>2013-05-06T11:41:31Z</time>
      </trkpt>
      <trkpt lat="44.11948" lon="5.38063">
        <ele>902.315</ele>
        <time>2013-05-06T11:41:38Z</time>
      </trkpt>
      <trkpt lat="44.11958" lon="5.38036">
        <ele>903.101</ele>
        <time>2013-05-06T11:41:46Z</time>
      </trkpt>
      <trkpt lat="44.11967" lon="5.38012">
        <ele>904.849</ele>
        <time>2013-05-06T11:41:53Z</time>
      </trkpt>
      <trkpt lat="44.11988" lon="5.37983">
        <ele>906.07</ele>
        <time>2013-05-06T11:42:02Z</time>
      </trkpt>
      <trkpt lat="44.12007" lon="5.37963">
        <ele>907.685</ele>
        <time>2013-05-06T11:42:10Z</time>
      </trkpt>
      <trkpt lat="44.12026" lon="5.37944">
        <ele>908.197</ele>
        <time>2013-05-06T11:42:18Z</time>
      </trkpt>
      <trkpt lat="44.12044" lon="5.37925">
        <ele>909.997</ele>
        <time>2013-05-06T11:42:26Z</time>
      </trkpt>
      <trkpt lat="44.12063" lon="5.37905">
        <ele>910.665</ele>
        <time>2013-05-06T11:42:34Z</time>
      </trkpt>
      <trkpt lat="44.12086" lon="5.37881">
        <ele>912.171</ele>
        <time>2013-05-06T11:42:44Z</time>
      </trkpt>
      <trkpt lat="44.12098" lon="5.37865">
        <ele>914.623</ele>
        <time>2013-05-06T11:42:50Z</time>
      </trkpt>
      <trkpt lat="44.1211" lon="5.37844">
        <ele>915.489</ele>
        <time>2013-05-06T11:42:57Z</time>
      </trkpt>
      <trkpt lat="44.12121" lon="5.37804">
        <ele>917.033</ele>
        <time>2013-05-06T11:43:08Z</time>
      </trkpt>
      <trkpt lat="44.12132" lon="5.37763">
        <ele>919.009</ele>
        <time>2013-05-06T11:43:20Z</time>
      </trkpt>
      <trkpt lat="44.12143" lon="5.37725">
        <ele>919.594</ele>
        <time>2013-05-06T11:43:30Z</time>
      </trkpt>
      <trkpt lat="44.1215" lon="5.37698">
        <ele>921.67</ele>
        <time>2013-05-06T11:43:37Z</time>
      </trkpt>
      <trkpt lat="44.12157" lon="5.37672">
        <ele>923.553</ele>
        <time>2013-05-06T11:43:44Z</time>
      </trkpt>
      <trkpt lat="44.12165" lon="5.37643">
        <ele>925.013</ele>
        <time>2013-05-06T11:43:51Z</time>
      </trkpt>
      <trkpt lat="44.12176" lon="5.37624">
        <ele>926.109</ele>
        <time>2013-05-06T11:43:57Z</time>
      </trkpt>
      <trkpt lat="44.12192" lon="5.37595">
        <ele>928.387</ele>
        <time>2013-05-06T11:44:06Z</time>
      </trkpt>
      <trkpt lat="44.12208" lon="5.37565">
        <ele>929.526</ele>
        <time>2013-05-06T11:44:15Z</time>
      </trkpt>
      <trkpt lat="44.12225" lon="5.37537">
        <ele>930.393</ele>
        <time>2013-05-06T11:44:24Z</time>
      </trkpt>
      <trkpt lat="44.12246" lon="5.37509">
        <ele>932.381</ele>
        <time>2013-05-06T11:44:34Z</time>
      </trkpt>
      <trkpt lat="44.12262" lon="5.37486">
        <ele>933.544</ele>
        <time>2013-05-06T11:44:42Z</time>
      </trkpt>
      <trkpt lat="44.12281" lon="5.37459">
        <ele>937.037</ele>
        <time>2013-05-06T11:44:51Z</time>
      </trkpt>
      <trkpt lat="44.12297" lon="5.37437">
        <ele>937.139</ele>
        <time>2013-05-06T11:45:00Z</time>
      </trkpt>
      <trkpt lat="44.12317" lon="5.37411">
        <ele>939.316</ele>
        <time>2013-05-06T11:45:09Z</time>
      </trkpt>
      <trkpt lat="44.12339" lon="5.37388">
        <ele>940.397</ele>
        <time>2013-05-06T11:45:18Z</time>
      </trkpt>
      <trkpt lat="44.12371" lon="5.3736">
        <ele>942.378</ele>
        <time>2013-05-06T11:45:31Z</time>
      </trkpt>
      <trkpt lat="44.12393" lon="5.37345">
        <ele>943.475</ele>
        <time>2013-05-06T11:45:39Z</time>
      </trkpt>
      <trkpt lat="44.12423" lon="5.37327">
        <ele>945.448</ele>
        <time>2013-05-06T11:45:50Z</time>
      </trkpt>
      <trkpt lat="44.12447" lon="5.37319">
        <ele>946.856</ele>
        <time>2013-05-06T11:45:59Z</time>
      </trkpt>
      <trkpt lat="44.12467" lon="5.37312">
        <ele>948.323</ele>
        <time>2013-05-06T11:46:06Z</time>
      </trkpt>
      <trkpt lat="44.12481" lon="5.37307">
        <ele>950.023</ele>
        <time>2013-05-06T11:46:11Z</time>
      </trkpt>
      <trkpt lat="44.12506" lon="5.37304">
        <ele>950.248</ele>
        <time>2013-05-06T11:46:20Z</time>
      </trkpt>
      <trkpt lat="44.1253" lon="5.37304">
        <ele>951.729</ele>
        <time>2013-05-06T11:46:28Z</time>
      </trkpt>
      <trkpt lat="44.12555" lon="5.37304">
        <ele>952.326</ele>
        <time>2013-05-06T11:46:36Z</time>
      </trkpt>
      <trkpt lat="44.1257" lon="5.37304">
        <ele>953.824</ele>
        <time>2013-05-06T11:46:42Z</time>
      </trkpt>
      <trkpt lat="44.12574" lon="5.37304">
        <ele>953.809</ele>
        <time>2013-05-06T11:46:43Z</time>
      </trkpt>
      <trkpt lat="44.12599" lon="5.37304">
        <ele>954.614</ele>
        <time>2013-05-06T11:46:52Z</time>
      </trkpt>
      <trkpt lat="44.12625" lon="5.37304">
        <ele>957.198</ele>
        <time>2013-05-06T11:47:01Z</time>
      </trkpt>
      <trkpt lat="44.12649" lon="5.37304">
        <ele>957.437</ele>
        <time>2013-05-06T11:47:09Z</time>
      </trkpt>
      <trkpt lat="44.12683" lon="5.37313">
        <ele>959.236</ele>
        <time>2013-05-06T11:47:20Z</time>
      </trkpt>
      <trkpt lat="44.12709" lon="5.37321">
        <ele>960.53</ele>
        <time>2013-05-06T11:47:29Z</time>
      </trkpt>
      <trkpt lat="44.12737" lon="5.3733">
        <ele>962.147</ele>
        <time>2013-05-06T11:47:39Z</time>
      </trkpt>
      <trkpt lat="44.12755" lon="5.37336">
        <ele>964.433</ele>
        <time>2013-05-06T11:47:46Z</time>
      </trkpt>
      <trkpt lat="44.12773" lon="5.37341">
        <ele>965.76</ele>
        <time>2013-05-06T11:47:52Z</time>
      </trkpt>
      <trkpt lat="44.12793" lon="5.37344">
        <ele>966.667</ele>
        <time>2013-05-06T11:47:59Z</time>
      </trkpt>
      <trkpt lat="44.12823" lon="5.37347">
        <ele>969.015</ele>
        <time>2013-05-06T11:48:09Z</time>
      </trkpt>
      <trkpt lat="44.12852" lon="5.3735">
        <ele>970.912</ele>
        <time>2013-05-06T11:48:19Z</time>
      </trkpt>
      <trkpt lat="44.12871" lon="5.37352">
        <ele>971.974</ele>
        <time>2013-05-06T11:48:26Z</time>
      </trkpt>
      <trkpt lat="44.12911" lon="5.37347">
        <ele>973.269</ele>
        <time>2013-05-06T11:48:40Z</time>
      </trkpt>
      <trkpt lat="44.12934" lon="5.37339">
        <ele>974.739</ele>
        <time>2013-05-06T11:48:48Z</time>
      </trkpt>
      <trkpt lat="44.1296" lon="5.3733">
        <ele>976.689</ele>
        <time>2013-05-06T11:48:57Z</time>
      </trkpt>
      <trkpt lat="44.12986" lon="5.37321">
        <ele>978.184</ele>
        <time>2013-05-06T11:49:06Z</time>
      </trkpt>
      <trkpt lat="44.13023" lon="5.37316">
        <ele>981.187</ele>
        <time>2013-05-06T11:49:18Z</time>
      </trkpt>
      <trkpt lat="44.13048" lon="5.37315">
        <ele>982.805</ele>
        <time>2013-05-06T11:49:27Z</time>
      </trkpt>
      <trkpt lat="44.13075" lon="5.37322">
        <ele>985.426</ele>
        <time>2013-05-06T11:49:36Z</time>
      </trkpt>
      <trkpt lat="44.13102" lon="5.37333">
        <ele>987.027</ele>
        <time>2013-05-06T11:49:45Z</time>
      </trkpt>
      <trkpt lat="44.13143" lon="5.37349">
        <ele>988.102</ele>
        <time>2013-05-06T11:49:59Z</time>
      </trkpt>
      <trkpt lat="44.1317" lon="5.37363">
        <ele>989.705</ele>
        <time>2013-05-06T11:50:09Z</time>
      </trkpt>
      <trkpt lat="44.13199" lon="5.37378">
        <ele>992.535</ele>
        <time>2013-05-06T11:50:19Z</time>
      </trkpt>
      <trkpt lat="44.13222" lon="5.3739">
        <ele>993.807</ele>
        <time>2013-05-06T11:50:28Z</time>
      </trkpt>
      <trkpt lat="44.13244" lon="5.37402">
        <ele>994.794</ele>
        <time>2013-05-06T11:50:36Z</time>
      </trkpt>
      <trkpt lat="44.13266" lon="5.37413">
        <ele>996.033</ele>
        <time>2013-05-06T11:50:44Z</time>
      </trkpt>
      <trkpt lat="44.13288" lon="5.37421">
        <ele>998.486</ele>
        <time>2013-05-06T11:50:51Z</time>
      </trkpt>
      <trkpt lat="44.13311" lon="5.37428">
        <ele>1000.029</ele>
        <time>2013-05-06T11:50:59Z</time>
      </trkpt>
      <trkpt lat="44.13337" lon="5.37437">
        <ele>1001.461</ele>
        <time>2013-05-06T11:51:08Z</time>
      </trkpt>
      <trkpt lat="44.13362" lon="5.37445">
        <ele>1002.965</ele>
        <time>2013-05-06T11:51:17Z</time>
      </trkpt>
      <trkpt lat="44.13389" lon="5.37448">
        <ele>1004.503</ele>
        <time>2013-05-06T11:51:26Z</time>
      </trkpt>
      <trkpt lat="44.13414" lon="5.37443">
        <ele>1005.512</ele>
        <time>2013-05-06T11:51:35Z</time>
      </trkpt>
      <trkpt lat="44.13457" lon="5.37434">
        <ele>1007.362</ele>
        <time>2013-05-06T11:51:50Z</time>
      </trkpt>
      <trkpt lat="44.13489" lon="5.37427">
        <ele>1009.745</ele>
        <time>2013-05-06T11:52:01Z</time>
      </trkpt>
      <trkpt lat="44.13525" lon="5.3742">
        <ele>1010.759</ele>
        <time>2013-05-06T11:52:14Z</time>
      </trkpt>
      <trkpt lat="44.13547" lon="5.37415">
        <ele>1012.128</ele>
        <time>2013-05-06T11:52:22Z</time>
      </trkpt>
      <trkpt lat="44.13571" lon="5.3741">
        <ele>1013.402</ele>
        <time>2013-05-06T11:52:31Z</time>
      </trkpt>
      <trkpt lat="44.13586" lon="5.37407">
        <ele>1014.898</ele>
        <time>2013-05-06T11:52:37Z</time>
      </trkpt>
      <trkpt lat="44.13606" lon="5.37403">
        <ele>1016.706</ele>
        <time>2013-05-06T11:52:44Z</time>
      </trkpt>
      <trkpt lat="44.13614" lon="5.37401">
        <ele>1018.459</ele>
        <time>2013-05-06T11:52:47Z</time>
      </trkpt>
      <trkpt lat="44.13629" lon="5.37395">
        <ele>1019.213</ele>
        <time>2013-05-06T11:52:53Z</time>
      </trkpt>
      <trkpt lat="44.13644" lon="5.37378">
        <ele>1021.688</ele>
        <time>2013-05-06T11:53:00Z</time>
      </trkpt>
      <trkpt lat="44.13642" lon="5.3736">
        <ele>1022.952</ele>
        <time>2013-05-06T11:53:06Z</time>
      </trkpt>
      <trkpt lat="44.1363" lon="5.37337">
        <ele>1024.044</ele>
        <time>2013-05-06T11:53:14Z</time>
      </trkpt>
      <trkpt lat="44.13607" lon="5.37325">
        <ele>1026.043</ele>
        <time>2013-05-06T11:53:24Z</time>
      </trkpt>
      <trkpt lat="44.13595" lon="5.37318">
        <ele>1026.848</ele>
        <time>2013-05-06T11:53:30Z</time>
      </trkpt>
      <trkpt lat="44.13576" lon="5.37307">
        <ele>1027.976</ele>
        <time>2013-05-06T11:53:38Z</time>
      </trkpt>
      <trkpt lat="44.13559" lon="5.37286">
        <ele>1030.239</ele>
        <time>2013-05-06T11:53:46Z</time>
      </trkpt>
      <trkpt lat="44.13537" lon="5.37259">
        <ele>1033.443</ele>
        <time>2013-05-06T11:53:58Z</time>
      </trkpt>
      <trkpt lat="44.13521" lon="5.37239">
        <ele>1034.122</ele>
        <time>2013-05-06T11:54:07Z</time>
      </trkpt>
      <trkpt lat="44.13501" lon="5.37213">
        <ele>1035.98</ele>
        <time>2013-05-06T11:54:17Z</time>
      </trkpt>
      <trkpt lat="44.13477" lon="5.37183">
        <ele>1036.279</ele>
        <time>2013-05-06T11:54:28Z</time>
      </trkpt>
      <trkpt lat="44.1346" lon="5.37161">
        <ele>1037.004</ele>
        <time>2013-05-06T11:54:36Z</time>
      </trkpt>
      <trkpt lat="44.13438" lon="5.37132">
        <ele>1038.013</ele>
        <time>2013-05-06T11:54:46Z</time>
      </trkpt>
      <trkpt lat="44.13437" lon="5.37098">
        <ele>1038.809</ele>
        <time>2013-05-06T11:54:53Z</time>
      </trkpt>
      <trkpt lat="44.1345" lon="5.37073">
        <ele>1039.805</ele>
        <time>2013-05-06T11:55:00Z</time>
      </trkpt>
      <trkpt lat="44.13473" lon="5.37057">
        <ele>1040.07</ele>
        <time>2013-05-06T11:55:08Z</time>
      </trkpt>
      <trkpt lat="44.13481" lon="5.37051">
        <ele>1042.584</ele>
        <time>2013-05-06T11:55:11Z</time>
      </trkpt>
      <trkpt lat="44.13515" lon="5.37027">
        <ele>1043.953</ele>
        <time>2013-05-06T11:55:23Z</time>
      </trkpt>
      <trkpt lat="44.13541" lon="5.37008">
        <ele>1046.408</ele>
        <time>2013-05-06T11:55:33Z</time>
      </trkpt>
      <trkpt lat="44.13562" lon="5.36994">
        <ele>1047.479</ele>
        <time>2013-05-06T11:55:41Z</time>
      </trkpt>
      <trkpt lat="44.13584" lon="5.36978">
        <ele>1049.619</ele>
        <time>2013-05-06T11:55:50Z</time>
      </trkpt>
      <trkpt lat="44.13604" lon="5.36964">
        <ele>1049.688</ele>
        <time>2013-05-06T11:55:58Z</time>
      </trkpt>
      <trkpt lat="44.13623" lon="5.36956">
        <ele>1051.153</ele>
        <time>2013-05-06T11:56:05Z</time>
      </trkpt>
      <trkpt lat="44.13641" lon="5.3695">
        <ele>1053.155</ele>
        <time>2013-05-06T11:56:12Z</time>
      </trkpt>
      <trkpt lat="44.13666" lon="5.36941">
        <ele>1054.216</ele>
        <time>2013-05-06T11:56:21Z</time>
      </trkpt>
      <trkpt lat="44.13686" lon="5.36935">
        <ele>1055.532</ele>
        <time>2013-05-06T11:56:29Z</time>
      </trkpt>
      <trkpt lat="44.13701" lon="5.3693">
        <ele>1055.677</ele>
        <time>2013-05-06T11:56:35Z</time>
      </trkpt>
      <trkpt lat="44.13714" lon="5.36926">
        <ele>1058.125</ele>
        <time>2013-05-06T11:56:40Z</time>
      </trkpt>
      <trkpt lat="44.13729" lon="5.36921">
        <ele>1058.494</ele>
        <time>2013-05-06T11:56:46Z</time>
      </trkpt>
      <trkpt lat="44.13751" lon="5.36912">
        <ele>1060.094</ele>
        <time>2013-05-06T11:56:55Z</time>
      </trkpt>
      <trkpt lat="44.13771" lon="5.3689">
        <ele>1061.731</ele>
        <time>2013-05-06T11:57:05Z</time>
      </trkpt>
      <trkpt lat="44.13795" lon="5.36862">
        <ele>1063.474</ele>
        <time>2013-05-06T11:57:17Z</time>
      </trkpt>
      <trkpt lat="44.13829" lon="5.36825">
        <ele>1066.822</ele>
        <time>2013-05-06T11:57:33Z</time>
      </trkpt>
      <trkpt lat="44.13849" lon="5.36808">
        <ele>1068.982</ele>
        <time>2013-05-06T11:57:42Z</time>
      </trkpt>
      <trkpt lat="44.1386" lon="5.36802">
        <ele>1070.226</ele>
        <time>2013-05-06T11:57:46Z</time>
      </trkpt>
      <trkpt lat="44.1388" lon="5.36793">
        <ele>1072.791</ele>
        <time>2013-05-06T11:57:54Z</time>
      </trkpt>
      <trkpt lat="44.13911" lon="5.36785">
        <ele>1074.102</ele>
        <time>2013-05-06T11:58:06Z</time>
      </trkpt>
      <trkpt lat="44.13935" lon="5.36787">
        <ele>1075.793</ele>
        <time>2013-05-06T11:58:16Z</time>
      </trkpt>
      <trkpt lat="44.13956" lon="5.3679">
        <ele>1078.192</ele>
        <time>2013-05-06T11:58:25Z</time>
      </trkpt>
      <trkpt lat="44.13975" lon="5.36792">
        <ele>1080.495</ele>
        <time>2013-05-06T11:58:33Z</time>
      </trkpt>
      <trkpt lat="44.13998" lon="5.36795">
        <ele>1080.638</ele>
        <time>2013-05-06T11:58:41Z</time>
      </trkpt>
      <trkpt lat="44.14011" lon="5.36796">
        <ele>1081.464</ele>
        <time>2013-05-06T11:58:46Z</time>
      </trkpt>
      <trkpt lat="44.14033" lon="5.36804">
        <ele>1082.678</ele>
        <time>2013-05-06T11:58:54Z</time>
      </trkpt>
      <trkpt lat="44.14059" lon="5.36821">
        <ele>1084.041</ele>
        <time>2013-05-06T11:59:06Z</time>
      </trkpt>
      <trkpt lat="44.14078" lon="5.36835">
        <ele>1085.539</ele>
        <time>2013-05-06T11:59:15Z</time>
      </trkpt>
      <trkpt lat="44.14083" lon="5.3684">
        <ele>1086.485</ele>
        <time>2013-05-06T11:59:17Z</time>
      </trkpt>
      <trkpt lat="44.14108" lon="5.36863">
        <ele>1088.712</ele>
        <time>2013-05-06T11:59:27Z</time>
      </trkpt>
      <trkpt lat="44.14126" lon="5.3688">
        <ele>1089.236</ele>
        <time>2013-05-06T11:59:35Z</time>
      </trkpt>
      <trkpt lat="44.14135" lon="5.3689">
        <ele>1090.834</ele>
        <time>2013-05-06T11:59:39Z</time>
      </trkpt>
      <trkpt lat="44.1415" lon="5.36913">
        <ele>1093.199</ele>
        <time>2013-05-06T11:59:47Z</time>
      </trkpt>
      <trkpt lat="44.14166" lon="5.36948">
        <ele>1095.227</ele>
        <time>2013-05-06T11:59:58Z</time>
      </trkpt>
      <trkpt lat="44.1418" lon="5.37001">
        <ele>1096.969</ele>
        <time>2013-05-06T12:00:12Z</time>
      </trkpt>
      <trkpt lat="44.14188" lon="5.3703">
        <ele>1098.719</ele>
        <time>2013-05-06T12:00:21Z</time>
      </trkpt>
      <trkpt lat="44.14205" lon="5.37056">
        <ele>1099.757</ele>
        <time>2013-05-06T12:00:31Z</time>
      </trkpt>
      <trkpt lat="44.14224" lon="5.3706">
        <ele>1099.494</ele>
        <time>2013-05-06T12:00:38Z</time>
      </trkpt>
      <trkpt lat="44.14244" lon="5.37049">
        <ele>1100.892</ele>
        <time>2013-05-06T12:00:45Z</time>
      </trkpt>
      <trkpt lat="44.14257" lon="5.37025">
        <ele>1102.885</ele>
        <time>2013-05-06T12:00:53Z</time>
      </trkpt>
      <trkpt lat="44.14263" lon="5.36996">
        <ele>1104.001</ele>
        <time>2013-05-06T12:01:01Z</time>
      </trkpt>
      <trkpt lat="44.14266" lon="5.36963">
        <ele>1104.947</ele>
        <time>2013-05-06T12:01:09Z</time>
      </trkpt>
      <trkpt lat="44.1427" lon="5.36926">
        <ele>1106.878</ele>
        <time>2013-05-06T12:01:18Z</time>
      </trkpt>
      <trkpt lat="44.14273" lon="5.36902">
        <ele>1108.436</ele>
        <time>2013-05-06T12:01:24Z</time>
      </trkpt>
      <trkpt lat="44.14276" lon="5.3687">
        <ele>1110.177</ele>
        <time>2013-05-06T12:01:32Z</time>
      </trkpt>
      <trkpt lat="44.14279" lon="5.36845">
        <ele>1111.005</ele>
        <time>2013-05-06T12:01:38Z</time>
      </trkpt>
      <trkpt lat="44.14285" lon="5.36806">
        <ele>1112.871</ele>
        <time>2013-05-06T12:01:48Z</time>
      </trkpt>
      <trkpt lat="44.14295" lon="5.36771">
        <ele>1113.195</ele>
        <time>2013-05-06T12:01:57Z</time>
      </trkpt>
      <trkpt lat="44.14314" lon="5.36744">
        <ele>1114.726</ele>
        <time>2013-05-06T12:02:06Z</time>
      </trkpt>
      <trkpt lat="44.14339" lon="5.36714">
        <ele>1115.113</ele>
        <time>2013-05-06T12:02:17Z</time>
      </trkpt>
      <trkpt lat="44.14364" lon="5.36692">
        <ele>1117.357</ele>
        <time>2013-05-06T12:02:27Z</time>
      </trkpt>
      <trkpt lat="44.14394" lon="5.36675">
        <ele>1119.378</ele>
        <time>2013-05-06T12:02:38Z</time>
      </trkpt>
      <trkpt lat="44.14421" lon="5.3666">
        <ele>1120.068</ele>
        <time>2013-05-06T12:02:48Z</time>
      </trkpt>
      <trkpt lat="44.14446" lon="5.36655">
        <ele>1121.911</ele>
        <time>2013-05-06T12:02:57Z</time>
      </trkpt>
      <trkpt lat="44.14468" lon="5.36653">
        <ele>1123.042</ele>
        <time>2013-05-06T12:03:04Z</time>
      </trkpt>
      <trkpt lat="44.14481" lon="5.36652">
        <ele>1124.525</ele>
        <time>2013-05-06T12:03:09Z</time>
      </trkpt>
      <trkpt lat="44.14512" lon="5.36656">
        <ele>1126.33</ele>
        <time>2013-05-06T12:03:20Z</time>
      </trkpt>
      <trkpt lat="44.14529" lon="5.36659">
        <ele>1127.484</ele>
        <time>2013-05-06T12:03:26Z</time>
      </trkpt>
      <trkpt lat="44.14557" lon="5.36663">
        <ele>1129.551</ele>
        <time>2013-05-06T12:03:36Z</time>
      </trkpt>
      <trkpt lat="44.14575" lon="5.3666">
        <ele>1130.637</ele>
        <time>2013-05-06T12:03:43Z</time>
      </trkpt>
      <trkpt lat="44.14581" lon="5.36644">
        <ele>1131.056</ele>
        <time>2013-05-06T12:03:48Z</time>
      </trkpt>
      <trkpt lat="44.14578" lon="5.36623">
        <ele>1131.3</ele>
        <time>2013-05-06T12:03:53Z</time>
      </trkpt>
      <trkpt lat="44.14565" lon="5.36591">
        <ele>1134.159</ele>
        <time>2013-05-06T12:04:01Z</time>
      </trkpt>
      <trkpt lat="44.14547" lon="5.36546">
        <ele>1134.608</ele>
        <time>2013-05-06T12:04:12Z</time>
      </trkpt>
      <trkpt lat="44.1453" lon="5.36509">
        <ele>1135.561</ele>
        <time>2013-05-06T12:04:22Z</time>
      </trkpt>
      <trkpt lat="44.14511" lon="5.36468">
        <ele>1137.282</ele>
        <time>2013-05-06T12:04:33Z</time>
      </trkpt>
      <trkpt lat="44.145" lon="5.36426">
        <ele>1138.258</ele>
        <time>2013-05-06T12:04:42Z</time>
      </trkpt>
      <trkpt lat="44.14512" lon="5.36394">
        <ele>1139.508</ele>
        <time>2013-05-06T12:04:50Z</time>
      </trkpt>
      <trkpt lat="44.14529" lon="5.36373">
        <ele>1140.006</ele>
        <time>2013-05-06T12:04:57Z</time>
      </trkpt>
      <trkpt lat="44.14559" lon="5.36341">
        <ele>1142.023</ele>
        <time>2013-05-06T12:05:08Z</time>
      </trkpt>
      <trkpt lat="44.14575" lon="5.36327">
        <ele>1143.414</ele>
        <time>2013-05-06T12:05:14Z</time>
      </trkpt>
      <trkpt lat="44.14593" lon="5.36297">
        <ele>1146.097</ele>
        <time>2013-05-06T12:05:23Z</time>
      </trkpt>
      <trkpt lat="44.14596" lon="5.36265">
        <ele>1146.61</ele>
        <time>2013-05-06T12:05:31Z</time>
      </trkpt>
      <trkpt lat="44.14598" lon="5.36217">
        <ele>1148.234</ele>
        <time>2013-05-06T12:05:42Z</time>
      </trkpt>
      <trkpt lat="44.146" lon="5.36176">
        <ele>1149.685</ele>
        <time>2013-05-06T12:05:52Z</time>
      </trkpt>
      <trkpt lat="44.14601" lon="5.36143">
        <ele>1150.961</ele>
        <time>2013-05-06T12:06:00Z</time>
      </trkpt>
      <trkpt lat="44.14602" lon="5.36139">
        <ele>1151.143</ele>
        <time>2013-05-06T12:06:01Z</time>
      </trkpt>
      <trkpt lat="44.14603" lon="5.36109">
        <ele>1153.128</ele>
        <time>2013-05-06T12:06:08Z</time>
      </trkpt>
      <trkpt lat="44.1461" lon="5.36076">
        <ele>1153.986</ele>
        <time>2013-05-06T12:06:16Z</time>
      </trkpt>
      <trkpt lat="44.1462" lon="5.36038">
        <ele>1156.368</ele>
        <time>2013-05-06T12:06:25Z</time>
      </trkpt>
      <trkpt lat="44.14631" lon="5.36007">
        <ele>1156.259</ele>
        <time>2013-05-06T12:06:33Z</time>
      </trkpt>
      <trkpt lat="44.14653" lon="5.35967">
        <ele>1158.224</ele>
        <time>2013-05-06T12:06:45Z</time>
      </trkpt>
      <trkpt lat="44.14677" lon="5.35944">
        <ele>1158.653</ele>
        <time>2013-05-06T12:06:55Z</time>
      </trkpt>
      <trkpt lat="44.14702" lon="5.35929">
        <ele>1159.16</ele>
        <time>2013-05-06T12:07:05Z</time>
      </trkpt>
      <trkpt lat="44.14725" lon="5.35923">
        <ele>1158.971</ele>
        <time>2013-05-06T12:07:13Z</time>
      </trkpt>
      <trkpt lat="44.14741" lon="5.35919">
        <ele>1161.042</ele>
        <time>2013-05-06T12:07:19Z</time>
      </trkpt>
      <trkpt lat="44.14752" lon="5.35918">
        <ele>1162.256</ele>
        <time>2013-05-06T12:07:23Z</time>
      </trkpt>
      <trkpt lat="44.14772" lon="5.35918">
        <ele>1165.381</ele>
        <time>2013-05-06T12:07:30Z</time>
      </trkpt>
      <trkpt lat="44.14795" lon="5.35922">
        <ele>1166.234</ele>
        <time>2013-05-06T12:07:38Z</time>
      </trkpt>
      <trkpt lat="44.14823" lon="5.35929">
        <ele>1168.48</ele>
        <time>2013-05-06T12:07:48Z</time>
      </trkpt>
      <trkpt lat="44.14853" lon="5.35939">
        <ele>1172.042</ele>
        <time>2013-05-06T12:07:59Z</time>
      </trkpt>
      <trkpt lat="44.14876" lon="5.35947">
        <ele>1171.557</ele>
        <time>2013-05-06T12:08:09Z</time>
      </trkpt>
      <trkpt lat="44.1488" lon="5.35949">
        <ele>1170.074</ele>
        <time>2013-05-06T12:08:11Z</time>
      </trkpt>
      <trkpt lat="44.14891" lon="5.35952">
        <ele>1173.378</ele>
        <time>2013-05-06T12:08:17Z</time>
      </trkpt>
      <trkpt lat="44.14893" lon="5.35953">
        <ele>1173.414</ele>
        <time>2013-05-06T12:08:18Z</time>
      </trkpt>
      <trkpt lat="44.14904" lon="5.35957">
        <ele>1175.251</ele>
        <time>2013-05-06T12:08:23Z</time>
      </trkpt>
      <trkpt lat="44.14924" lon="5.35964">
        <ele>1178.076</ele>
        <time>2013-05-06T12:08:31Z</time>
      </trkpt>
      <trkpt lat="44.1494" lon="5.3596">
        <ele>1178.794</ele>
        <time>2013-05-06T12:08:38Z</time>
      </trkpt>
      <trkpt lat="44.14946" lon="5.35955">
        <ele>1179.742</ele>
        <time>2013-05-06T12:08:43Z</time>
      </trkpt>
      <trkpt lat="44.14946" lon="5.35931">
        <ele>1181.315</ele>
        <time>2013-05-06T12:08:51Z</time>
      </trkpt>
      <trkpt lat="44.14936" lon="5.35909">
        <ele>1183.079</ele>
        <time>2013-05-06T12:08:58Z</time>
      </trkpt>
      <trkpt lat="44.14932" lon="5.35903">
        <ele>1183.904</ele>
        <time>2013-05-06T12:09:00Z</time>
      </trkpt>
      <trkpt lat="44.14914" lon="5.3588">
        <ele>1185.345</ele>
        <time>2013-05-06T12:09:08Z</time>
      </trkpt>
      <trkpt lat="44.14895" lon="5.35858">
        <ele>1186.271</ele>
        <time>2013-05-06T12:09:16Z</time>
      </trkpt>
      <trkpt lat="44.14883" lon="5.35822">
        <ele>1188.333</ele>
        <time>2013-05-06T12:09:25Z</time>
      </trkpt>
      <trkpt lat="44.14879" lon="5.35793">
        <ele>1188.777</ele>
        <time>2013-05-06T12:09:33Z</time>
      </trkpt>
      <trkpt lat="44.14873" lon="5.35754">
        <ele>1189.81</ele>
        <time>2013-05-06T12:09:43Z</time>
      </trkpt>
      <trkpt lat="44.14869" lon="5.35728">
        <ele>1191.219</ele>
        <time>2013-05-06T12:09:50Z</time>
      </trkpt>
      <trkpt lat="44.14871" lon="5.35701">
        <ele>1193.797</ele>
        <time>2013-05-06T12:09:57Z</time>
      </trkpt>
      <trkpt lat="44.14871" lon="5.35695">
        <ele>1194.634</ele>
        <time>2013-05-06T12:09:59Z</time>
      </trkpt>
      <trkpt lat="44.14875" lon="5.35663">
        <ele>1196.073</ele>
        <time>2013-05-06T12:10:07Z</time>
      </trkpt>
      <trkpt lat="44.14886" lon="5.35634">
        <ele>1196.963</ele>
        <time>2013-05-06T12:10:15Z</time>
      </trkpt>
      <trkpt lat="44.149" lon="5.35608">
        <ele>1198.268</ele>
        <time>2013-05-06T12:10:23Z</time>
      </trkpt>
      <trkpt lat="44.14913" lon="5.35585">
        <ele>1199.386</ele>
        <time>2013-05-06T12:10:31Z</time>
      </trkpt>
      <trkpt lat="44.14926" lon="5.35568">
        <ele>1201.323</ele>
        <time>2013-05-06T12:10:38Z</time>
      </trkpt>
      <trkpt lat="44.14931" lon="5.35562">
        <ele>1202.454</ele>
        <time>2013-05-06T12:10:40Z</time>
      </trkpt>
      <trkpt lat="44.14948" lon="5.35545">
        <ele>1203.244</ele>
        <time>2013-05-06T12:10:48Z</time>
      </trkpt>
      <trkpt lat="44.14968" lon="5.35527">
        <ele>1204.773</ele>
        <time>2013-05-06T12:10:57Z</time>
      </trkpt>
      <trkpt lat="44.14983" lon="5.35517">
        <ele>1205.453</ele>
        <time>2013-05-06T12:11:03Z</time>
      </trkpt>
      <trkpt lat="44.15" lon="5.35506">
        <ele>1206.453</ele>
        <time>2013-05-06T12:11:10Z</time>
      </trkpt>
      <trkpt lat="44.15022" lon="5.35502">
        <ele>1207.644</ele>
        <time>2013-05-06T12:11:18Z</time>
      </trkpt>
      <trkpt lat="44.15049" lon="5.35507">
        <ele>1209.04</ele>
        <time>2013-05-06T12:11:28Z</time>
      </trkpt>
      <trkpt lat="44.15064" lon="5.35521">
        <ele>1209.943</ele>
        <time>2013-05-06T12:11:35Z</time>
      </trkpt>
      <trkpt lat="44.15083" lon="5.3554">
        <ele>1213.057</ele>
        <time>2013-05-06T12:11:43Z</time>
      </trkpt>
      <trkpt lat="44.15089" lon="5.35547">
        <ele>1214.401</ele>
        <time>2013-05-06T12:11:46Z</time>
      </trkpt>
      <trkpt lat="44.15108" lon="5.35557">
        <ele>1215.292</ele>
        <time>2013-05-06T12:11:53Z</time>
      </trkpt>
      <trkpt lat="44.15116" lon="5.35545">
        <ele>1215.77</ele>
        <time>2013-05-06T12:11:59Z</time>
      </trkpt>
      <trkpt lat="44.15128" lon="5.35526">
        <ele>1217.798</ele>
        <time>2013-05-06T12:12:05Z</time>
      </trkpt>
      <trkpt lat="44.15145" lon="5.35504">
        <ele>1219.469</ele>
        <time>2013-05-06T12:12:14Z</time>
      </trkpt>
      <trkpt lat="44.15161" lon="5.35485">
        <ele>1220.84</ele>
        <time>2013-05-06T12:12:22Z</time>
      </trkpt>
      <trkpt lat="44.15174" lon="5.35485">
        <ele>1221.594</ele>
        <time>2013-05-06T12:12:28Z</time>
      </trkpt>
      <trkpt lat="44.15193" lon="5.35485">
        <ele>1223.382</ele>
        <time>2013-05-06T12:12:35Z</time>
      </trkpt>
      <trkpt lat="44.1521" lon="5.35479">
        <ele>1224.411</ele>
        <time>2013-05-06T12:12:41Z</time>
      </trkpt>
      <trkpt lat="44.15224" lon="5.35455">
        <ele>1226.548</ele>
        <time>2013-05-06T12:12:48Z</time>
      </trkpt>
      <trkpt lat="44.15228" lon="5.35426">
        <ele>1226.935</ele>
        <time>2013-05-06T12:12:55Z</time>
      </trkpt>
      <trkpt lat="44.15229" lon="5.35414">
        <ele>1228.813</ele>
        <time>2013-05-06T12:12:58Z</time>
      </trkpt>
      <trkpt lat="44.1523" lon="5.35402">
        <ele>1230.383</ele>
        <time>2013-05-06T12:13:01Z</time>
      </trkpt>
      <trkpt lat="44.15232" lon="5.35381">
        <ele>1231.343</ele>
        <time>2013-05-06T12:13:06Z</time>
      </trkpt>
      <trkpt lat="44.1524" lon="5.35348">
        <ele>1233.91</ele>
        <time>2013-05-06T12:13:15Z</time>
      </trkpt>
      <trkpt lat="44.15249" lon="5.35315">
        <ele>1233.949</ele>
        <time>2013-05-06T12:13:25Z</time>
      </trkpt>
      <trkpt lat="44.15254" lon="5.35298">
        <ele>1234.913</ele>
        <time>2013-05-06T12:13:31Z</time>
      </trkpt>
      <trkpt lat="44.15262" lon="5.35271">
        <ele>1236.075</ele>
        <time>2013-05-06T12:13:39Z</time>
      </trkpt>
      <trkpt lat="44.15268" lon="5.35249">
        <ele>1238.209</ele>
        <time>2013-05-06T12:13:45Z</time>
      </trkpt>
      <trkpt lat="44.15272" lon="5.35234">
        <ele>1238.956</ele>
        <time>2013-05-06T12:13:50Z</time>
      </trkpt>
      <trkpt lat="44.15277" lon="5.35213">
        <ele>1240.118</ele>
        <time>2013-05-06T12:13:56Z</time>
      </trkpt>
      <trkpt lat="44.1528" lon="5.35183">
        <ele>1240.976</ele>
        <time>2013-05-06T12:14:04Z</time>
      </trkpt>
      <trkpt lat="44.15283" lon="5.35153">
        <ele>1242.468</ele>
        <time>2013-05-06T12:14:12Z</time>
      </trkpt>
      <trkpt lat="44.15287" lon="5.35108">
        <ele>1244.384</ele>
        <time>2013-05-06T12:14:24Z</time>
      </trkpt>
      <trkpt lat="44.15289" lon="5.35086">
        <ele>1246.591</ele>
        <time>2013-05-06T12:14:30Z</time>
      </trkpt>
      <trkpt lat="44.15305" lon="5.35051">
        <ele>1247.973</ele>
        <time>2013-05-06T12:14:41Z</time>
      </trkpt>
      <trkpt lat="44.15319" lon="5.35029">
        <ele>1248.704</ele>
        <time>2013-05-06T12:14:49Z</time>
      </trkpt>
      <trkpt lat="44.15326" lon="5.3502">
        <ele>1250.66</ele>
        <time>2013-05-06T12:14:52Z</time>
      </trkpt>
      <trkpt lat="44.15336" lon="5.35014">
        <ele>1251.362</ele>
        <time>2013-05-06T12:14:56Z</time>
      </trkpt>
      <trkpt lat="44.15366" lon="5.35005">
        <ele>1252.557</ele>
        <time>2013-05-06T12:15:07Z</time>
      </trkpt>
      <trkpt lat="44.15385" lon="5.35002">
        <ele>1256.181</ele>
        <time>2013-05-06T12:15:13Z</time>
      </trkpt>
      <trkpt lat="44.15416" lon="5.35">
        <ele>1252.599</ele>
        <time>2013-05-06T12:15:22Z</time>
      </trkpt>
      <trkpt lat="44.15419" lon="5.35">
        <ele>1252.414</ele>
        <time>2013-05-06T12:15:23Z</time>
      </trkpt>
      <trkpt lat="44.15432" lon="5.35">
        <ele>1255.364</ele>
        <time>2013-05-06T12:15:27Z</time>
      </trkpt>
      <trkpt lat="44.15453" lon="5.35">
        <ele>1253.112</ele>
        <time>2013-05-06T12:15:33Z</time>
      </trkpt>
      <trkpt lat="44.15494" lon="5.34985">
        <ele>1254.394</ele>
        <time>2013-05-06T12:15:43Z</time>
      </trkpt>
      <trkpt lat="44.15539" lon="5.34959">
        <ele>1252.961</ele>
        <time>2013-05-06T12:15:54Z</time>
      </trkpt>
      <trkpt lat="44.15573" lon="5.34945">
        <ele>1254.618</ele>
        <time>2013-05-06T12:16:02Z</time>
      </trkpt>
      <trkpt lat="44.15597" lon="5.34941">
        <ele>1255.702</ele>
        <time>2013-05-06T12:16:07Z</time>
      </trkpt>
      <trkpt lat="44.15606" lon="5.34943">
        <ele>1256.226</ele>
        <time>2013-05-06T12:16:09Z</time>
      </trkpt>
      <trkpt lat="44.15624" lon="5.34952">
        <ele>1255.39</ele>
        <time>2013-05-06T12:16:13Z</time>
      </trkpt>
      <trkpt lat="44.15642" lon="5.34963">
        <ele>1255.45</ele>
        <time>2013-05-06T12:16:17Z</time>
      </trkpt>
      <trkpt lat="44.15689" lon="5.34975">
        <ele>1257.107</ele>
        <time>2013-05-06T12:16:27Z</time>
      </trkpt>
      <trkpt lat="44.15711" lon="5.34978">
        <ele>1257.876</ele>
        <time>2013-05-06T12:16:32Z</time>
      </trkpt>
      <trkpt lat="44.15727" lon="5.34961">
        <ele>1258.754</ele>
        <time>2013-05-06T12:16:37Z</time>
      </trkpt>
      <trkpt lat="44.15721" lon="5.34941">
        <ele>1259.795</ele>
        <time>2013-05-06T12:16:41Z</time>
      </trkpt>
      <trkpt lat="44.15719" lon="5.34936">
        <ele>1259.859</ele>
        <time>2013-05-06T12:16:42Z</time>
      </trkpt>
      <trkpt lat="44.15693" lon="5.34876">
        <ele>1261.204</ele>
        <time>2013-05-06T12:16:54Z</time>
      </trkpt>
      <trkpt lat="44.15693" lon="5.34854">
        <ele>1261.504</ele>
        <time>2013-05-06T12:16:58Z</time>
      </trkpt>
      <trkpt lat="44.15711" lon="5.34825">
        <ele>1263.317</ele>
        <time>2013-05-06T12:17:05Z</time>
      </trkpt>
      <trkpt lat="44.15745" lon="5.34807">
        <ele>1264.715</ele>
        <time>2013-05-06T12:17:14Z</time>
      </trkpt>
      <trkpt lat="44.15766" lon="5.34791">
        <ele>1265.887</ele>
        <time>2013-05-06T12:17:20Z</time>
      </trkpt>
      <trkpt lat="44.15762" lon="5.34775">
        <ele>1265.047</ele>
        <time>2013-05-06T12:17:25Z</time>
      </trkpt>
      <trkpt lat="44.15749" lon="5.34755">
        <ele>1267.073</ele>
        <time>2013-05-06T12:17:30Z</time>
      </trkpt>
      <trkpt lat="44.15745" lon="5.34753">
        <ele>1266.58</ele>
        <time>2013-05-06T12:17:31Z</time>
      </trkpt>
      <trkpt lat="44.15709" lon="5.34732">
        <ele>1268.803</ele>
        <time>2013-05-06T12:17:41Z</time>
      </trkpt>
      <trkpt lat="44.15689" lon="5.3472">
        <ele>1269.066</ele>
        <time>2013-05-06T12:17:47Z</time>
      </trkpt>
      <trkpt lat="44.1567" lon="5.34707">
        <ele>1269.875</ele>
        <time>2013-05-06T12:17:53Z</time>
      </trkpt>
      <trkpt lat="44.15643" lon="5.34673">
        <ele>1271.948</ele>
        <time>2013-05-06T12:18:03Z</time>
      </trkpt>
      <trkpt lat="44.15625" lon="5.34645">
        <ele>1273.332</ele>
        <time>2013-05-06T12:18:11Z</time>
      </trkpt>
      <trkpt lat="44.15607" lon="5.34616">
        <ele>1273.955</ele>
        <time>2013-05-06T12:18:19Z</time>
      </trkpt>
      <trkpt lat="44.15588" lon="5.34593">
        <ele>1274.686</ele>
        <time>2013-05-06T12:18:26Z</time>
      </trkpt>
      <trkpt lat="44.15555" lon="5.34557">
        <ele>1276.061</ele>
        <time>2013-05-06T12:18:37Z</time>
      </trkpt>
      <trkpt lat="44.15545" lon="5.34533">
        <ele>1278.545</ele>
        <time>2013-05-06T12:18:43Z</time>
      </trkpt>
      <trkpt lat="44.15528" lon="5.34491">
        <ele>1280.112</ele>
        <time>2013-05-06T12:18:53Z</time>
      </trkpt>
      <trkpt lat="44.15508" lon="5.34463">
        <ele>1282.127</ele>
        <time>2013-05-06T12:19:01Z</time>
      </trkpt>
      <trkpt lat="44.15499" lon="5.3446">
        <ele>1282.539</ele>
        <time>2013-05-06T12:19:05Z</time>
      </trkpt>
      <trkpt lat="44.15482" lon="5.34464">
        <ele>1282.99</ele>
        <time>2013-05-06T12:19:10Z</time>
      </trkpt>
      <trkpt lat="44.15476" lon="5.34475">
        <ele>1282.611</ele>
        <time>2013-05-06T12:19:12Z</time>
      </trkpt>
      <trkpt lat="44.15449" lon="5.34526">
        <ele>1284.707</ele>
        <time>2013-05-06T12:19:24Z</time>
      </trkpt>
      <trkpt lat="44.15422" lon="5.34562">
        <ele>1285.437</ele>
        <time>2013-05-06T12:19:34Z</time>
      </trkpt>
      <trkpt lat="44.15412" lon="5.34569">
        <ele>1286.663</ele>
        <time>2013-05-06T12:19:37Z</time>
      </trkpt>
      <trkpt lat="44.15377" lon="5.34583">
        <ele>1288.14</ele>
        <time>2013-05-06T12:19:46Z</time>
      </trkpt>
      <trkpt lat="44.15341" lon="5.34585">
        <ele>1289.323</ele>
        <time>2013-05-06T12:19:55Z</time>
      </trkpt>
      <trkpt lat="44.15293" lon="5.34574">
        <ele>1290.401</ele>
        <time>2013-05-06T12:20:06Z</time>
      </trkpt>
      <trkpt lat="44.15271" lon="5.34563">
        <ele>1291.017</ele>
        <time>2013-05-06T12:20:11Z</time>
      </trkpt>
      <trkpt lat="44.1525" lon="5.3454">
        <ele>1291.335</ele>
        <time>2013-05-06T12:20:17Z</time>
      </trkpt>
      <trkpt lat="44.15222" lon="5.345">
        <ele>1291.658</ele>
        <time>2013-05-06T12:20:26Z</time>
      </trkpt>
      <trkpt lat="44.152" lon="5.34497">
        <ele>1291.516</ele>
        <time>2013-05-06T12:20:32Z</time>
      </trkpt>
      <trkpt lat="44.15167" lon="5.34513">
        <ele>1291.68</ele>
        <time>2013-05-06T12:20:40Z</time>
      </trkpt>
      <trkpt lat="44.15159" lon="5.34521">
        <ele>1292.15</ele>
        <time>2013-05-06T12:20:42Z</time>
      </trkpt>
      <trkpt lat="44.15091" lon="5.34536">
        <ele>1294.102</ele>
        <time>2013-05-06T12:20:57Z</time>
      </trkpt>
      <trkpt lat="44.15047" lon="5.34529">
        <ele>1297.16</ele>
        <time>2013-05-06T12:21:06Z</time>
      </trkpt>
      <trkpt lat="44.14986" lon="5.34508">
        <ele>1298.127</ele>
        <time>2013-05-06T12:21:18Z</time>
      </trkpt>
      <trkpt lat="44.14956" lon="5.34484">
        <ele>1298.326</ele>
        <time>2013-05-06T12:21:25Z</time>
      </trkpt>
      <trkpt lat="44.14951" lon="5.34483">
        <ele>1298.25</ele>
        <time>2013-05-06T12:21:26Z</time>
      </trkpt>
      <trkpt lat="44.14928" lon="5.34485">
        <ele>1299.173</ele>
        <time>2013-05-06T12:21:31Z</time>
      </trkpt>
      <trkpt lat="44.1489" lon="5.34496">
        <ele>1300.359</ele>
        <time>2013-05-06T12:21:39Z</time>
      </trkpt>
      <trkpt lat="44.14838" lon="5.34511">
        <ele>1303.948</ele>
        <time>2013-05-06T12:21:50Z</time>
      </trkpt>
      <trkpt lat="44.14776" lon="5.34511">
        <ele>1305.495</ele>
        <time>2013-05-06T12:22:03Z</time>
      </trkpt>
      <trkpt lat="44.14754" lon="5.34511">
        <ele>1305.672</ele>
        <time>2013-05-06T12:22:08Z</time>
      </trkpt>
      <trkpt lat="44.14717" lon="5.34511">
        <ele>1307.282</ele>
        <time>2013-05-06T12:22:16Z</time>
      </trkpt>
      <trkpt lat="44.14686" lon="5.34508">
        <ele>1307.838</ele>
        <time>2013-05-06T12:22:23Z</time>
      </trkpt>
      <trkpt lat="44.14643" lon="5.34503">
        <ele>1309.766</ele>
        <time>2013-05-06T12:22:33Z</time>
      </trkpt>
      <trkpt lat="44.14599" lon="5.34483">
        <ele>1312.342</ele>
        <time>2013-05-06T12:22:43Z</time>
      </trkpt>
      <trkpt lat="44.14568" lon="5.3445">
        <ele>1312.969</ele>
        <time>2013-05-06T12:22:51Z</time>
      </trkpt>
      <trkpt lat="44.14548" lon="5.3442">
        <ele>1314.72</ele>
        <time>2013-05-06T12:22:59Z</time>
      </trkpt>
      <trkpt lat="44.14535" lon="5.344">
        <ele>1313.827</ele>
        <time>2013-05-06T12:23:05Z</time>
      </trkpt>
      <trkpt lat="44.14514" lon="5.34392">
        <ele>1314.917</ele>
        <time>2013-05-06T12:23:10Z</time>
      </trkpt>
      <trkpt lat="44.14491" lon="5.34399">
        <ele>1316.083</ele>
        <time>2013-05-06T12:23:16Z</time>
      </trkpt>
      <trkpt lat="44.14465" lon="5.34421">
        <ele>1316.866</ele>
        <time>2013-05-06T12:23:23Z</time>
      </trkpt>
      <trkpt lat="44.1443" lon="5.34451">
        <ele>1318.688</ele>
        <time>2013-05-06T12:23:33Z</time>
      </trkpt>
      <trkpt lat="44.144" lon="5.34476">
        <ele>1319.085</ele>
        <time>2013-05-06T12:23:42Z</time>
      </trkpt>
      <trkpt lat="44.14361" lon="5.34505">
        <ele>1319.993</ele>
        <time>2013-05-06T12:23:53Z</time>
      </trkpt>
      <trkpt lat="44.1432" lon="5.34518">
        <ele>1320.703</ele>
        <time>2013-05-06T12:24:03Z</time>
      </trkpt>
      <trkpt lat="44.14268" lon="5.34522">
        <ele>1322.118</ele>
        <time>2013-05-06T12:24:15Z</time>
      </trkpt>
      <trkpt lat="44.14229" lon="5.3452">
        <ele>1324.116</ele>
        <time>2013-05-06T12:24:24Z</time>
      </trkpt>
      <trkpt lat="44.14179" lon="5.34496">
        <ele>1326.091</ele>
        <time>2013-05-06T12:24:36Z</time>
      </trkpt>
      <trkpt lat="44.14163" lon="5.34486">
        <ele>1326.74</ele>
        <time>2013-05-06T12:24:40Z</time>
      </trkpt>
      <trkpt lat="44.14139" lon="5.3447">
        <ele>1327.652</ele>
        <time>2013-05-06T12:24:46Z</time>
      </trkpt>
      <trkpt lat="44.14115" lon="5.34437">
        <ele>1327.657</ele>
        <time>2013-05-06T12:24:55Z</time>
      </trkpt>
      <trkpt lat="44.14117" lon="5.34415">
        <ele>1327.403</ele>
        <time>2013-05-06T12:25:00Z</time>
      </trkpt>
      <trkpt lat="44.14131" lon="5.34397">
        <ele>1328.544</ele>
        <time>2013-05-06T12:25:05Z</time>
      </trkpt>
      <trkpt lat="44.14154" lon="5.34361">
        <ele>1329.083</ele>
        <time>2013-05-06T12:25:14Z</time>
      </trkpt>
      <trkpt lat="44.14178" lon="5.34328">
        <ele>1329.461</ele>
        <time>2013-05-06T12:25:23Z</time>
      </trkpt>
      <trkpt lat="44.14195" lon="5.34291">
        <ele>1330.298</ele>
        <time>2013-05-06T12:25:31Z</time>
      </trkpt>
      <trkpt lat="44.14202" lon="5.34273">
        <ele>1331.909</ele>
        <time>2013-05-06T12:25:35Z</time>
      </trkpt>
      <trkpt lat="44.14214" lon="5.34241">
        <ele>1333.82</ele>
        <time>2013-05-06T12:25:42Z</time>
      </trkpt>
      <trkpt lat="44.14222" lon="5.34199">
        <ele>1333.813</ele>
        <time>2013-05-06T12:25:50Z</time>
      </trkpt>
      <trkpt lat="44.14226" lon="5.34152">
        <ele>1335.385</ele>
        <time>2013-05-06T12:25:59Z</time>
      </trkpt>
      <trkpt lat="44.14238" lon="5.34127">
        <ele>1335.678</ele>
        <time>2013-05-06T12:26:04Z</time>
      </trkpt>
      <trkpt lat="44.14242" lon="5.34114">
        <ele>1335.032</ele>
        <time>2013-05-06T12:26:07Z</time>
      </trkpt>
      <trkpt lat="44.14259" lon="5.34065">
        <ele>1337.122</ele>
        <time>2013-05-06T12:26:17Z</time>
      </trkpt>
      <trkpt lat="44.14275" lon="5.34044">
        <ele>1338.894</ele>
        <time>2013-05-06T12:26:24Z</time>
      </trkpt>
      <trkpt lat="44.1428" lon="5.34037">
        <ele>1338.211</ele>
        <time>2013-05-06T12:26:26Z</time>
      </trkpt>
      <trkpt lat="44.14303" lon="5.34009">
        <ele>1338.935</ele>
        <time>2013-05-06T12:26:35Z</time>
      </trkpt>
      <trkpt lat="44.14308" lon="5.34005">
        <ele>1339.966</ele>
        <time>2013-05-06T12:26:37Z</time>
      </trkpt>
      <trkpt lat="44.14322" lon="5.33994">
        <ele>1340.484</ele>
        <time>2013-05-06T12:26:42Z</time>
      </trkpt>
      <trkpt lat="44.14337" lon="5.33983">
        <ele>1340.807</ele>
        <time>2013-05-06T12:26:48Z</time>
      </trkpt>
      <trkpt lat="44.14352" lon="5.33979">
        <ele>1340.769</ele>
        <time>2013-05-06T12:26:53Z</time>
      </trkpt>
      <trkpt lat="44.14371" lon="5.33974">
        <ele>1341.809</ele>
        <time>2013-05-06T12:26:59Z</time>
      </trkpt>
      <trkpt lat="44.144" lon="5.33974">
        <ele>1343.248</ele>
        <time>2013-05-06T12:27:07Z</time>
      </trkpt>
      <trkpt lat="44.14437" lon="5.33965">
        <ele>1343.933</ele>
        <time>2013-05-06T12:27:17Z</time>
      </trkpt>
      <trkpt lat="44.14456" lon="5.33959">
        <ele>1346.208</ele>
        <time>2013-05-06T12:27:22Z</time>
      </trkpt>
      <trkpt lat="44.14481" lon="5.33945">
        <ele>1347.164</ele>
        <time>2013-05-06T12:27:29Z</time>
      </trkpt>
      <trkpt lat="44.14509" lon="5.33928">
        <ele>1348.969</ele>
        <time>2013-05-06T12:27:37Z</time>
      </trkpt>
      <trkpt lat="44.14538" lon="5.33917">
        <ele>1349.928</ele>
        <time>2013-05-06T12:27:45Z</time>
      </trkpt>
      <trkpt lat="44.14571" lon="5.33908">
        <ele>1350.653</ele>
        <time>2013-05-06T12:27:53Z</time>
      </trkpt>
      <trkpt lat="44.14611" lon="5.33897">
        <ele>1352.507</ele>
        <time>2013-05-06T12:28:03Z</time>
      </trkpt>
      <trkpt lat="44.14626" lon="5.33893">
        <ele>1353.781</ele>
        <time>2013-05-06T12:28:07Z</time>
      </trkpt>
      <trkpt lat="44.1463" lon="5.33851">
        <ele>1354.115</ele>
        <time>2013-05-06T12:28:12Z</time>
      </trkpt>
      <trkpt lat="44.14617" lon="5.33867">
        <ele>1355.104</ele>
        <time>2013-05-06T12:28:15Z</time>
      </trkpt>
      <trkpt lat="44.14607" lon="5.33862">
        <ele>1354.803</ele>
        <time>2013-05-06T12:28:17Z</time>
      </trkpt>
      <trkpt lat="44.14597" lon="5.33857">
        <ele>1354.76</ele>
        <time>2013-05-06T12:28:19Z</time>
      </trkpt>
      <trkpt lat="44.14567" lon="5.3384">
        <ele>1355.93</ele>
        <time>2013-05-06T12:28:26Z</time>
      </trkpt>
      <trkpt lat="44.14545" lon="5.33828">
        <ele>1356.662</ele>
        <time>2013-05-06T12:28:31Z</time>
      </trkpt>
      <trkpt lat="44.14536" lon="5.33823">
        <ele>1356.857</ele>
        <time>2013-05-06T12:28:33Z</time>
      </trkpt>
      <trkpt lat="44.14527" lon="5.33819">
        <ele>1356.639</ele>
        <time>2013-05-06T12:28:35Z</time>
      </trkpt>
      <trkpt lat="44.14497" lon="5.33792">
        <ele>1357.017</ele>
        <time>2013-05-06T12:28:42Z</time>
      </trkpt>
      <trkpt lat="44.14481" lon="5.33764">
        <ele>1358.561</ele>
        <time>2013-05-06T12:28:48Z</time>
      </trkpt>
      <trkpt lat="44.1447" lon="5.33727">
        <ele>1360.284</ele>
        <time>2013-05-06T12:28:55Z</time>
      </trkpt>
      <trkpt lat="44.14474" lon="5.33686">
        <ele>1361.823</ele>
        <time>2013-05-06T12:29:02Z</time>
      </trkpt>
      <trkpt lat="44.14485" lon="5.33628">
        <ele>1362.016</ele>
        <time>2013-05-06T12:29:12Z</time>
      </trkpt>
      <trkpt lat="44.14499" lon="5.33574">
        <ele>1363.419</ele>
        <time>2013-05-06T12:29:22Z</time>
      </trkpt>
      <trkpt lat="44.14502" lon="5.33563">
        <ele>1364.395</ele>
        <time>2013-05-06T12:29:24Z</time>
      </trkpt>
      <trkpt lat="44.14527" lon="5.33512">
        <ele>1365.501</ele>
        <time>2013-05-06T12:29:36Z</time>
      </trkpt>
      <trkpt lat="44.14541" lon="5.33488">
        <ele>1365.689</ele>
        <time>2013-05-06T12:29:43Z</time>
      </trkpt>
      <trkpt lat="44.14557" lon="5.33481">
        <ele>1367.125</ele>
        <time>2013-05-06T12:29:50Z</time>
      </trkpt>
      <trkpt lat="44.14574" lon="5.3348">
        <ele>1369.366</ele>
        <time>2013-05-06T12:29:56Z</time>
      </trkpt>
      <trkpt lat="44.14577" lon="5.3348">
        <ele>1369.531</ele>
        <time>2013-05-06T12:29:57Z</time>
      </trkpt>
      <trkpt lat="44.14599" lon="5.33479">
        <ele>1371.252</ele>
        <time>2013-05-06T12:30:04Z</time>
      </trkpt>
      <trkpt lat="44.14635" lon="5.33477">
        <ele>1373.892</ele>
        <time>2013-05-06T12:30:15Z</time>
      </trkpt>
      <trkpt lat="44.14663" lon="5.33476">
        <ele>1374.729</ele>
        <time>2013-05-06T12:30:24Z</time>
      </trkpt>
      <trkpt lat="44.14685" lon="5.33475">
        <ele>1374.739</ele>
        <time>2013-05-06T12:30:31Z</time>
      </trkpt>
      <trkpt lat="44.14706" lon="5.33474">
        <ele>1377.048</ele>
        <time>2013-05-06T12:30:38Z</time>
      </trkpt>
      <trkpt lat="44.14732" lon="5.33473">
        <ele>1377.755</ele>
        <time>2013-05-06T12:30:46Z</time>
      </trkpt>
      <trkpt lat="44.14749" lon="5.33471">
        <ele>1377.297</ele>
        <time>2013-05-06T12:30:51Z</time>
      </trkpt>
      <trkpt lat="44.14776" lon="5.33465">
        <ele>1380.987</ele>
        <time>2013-05-06T12:30:59Z</time>
      </trkpt>
      <trkpt lat="44.14809" lon="5.33457">
        <ele>1381.959</ele>
        <time>2013-05-06T12:31:08Z</time>
      </trkpt>
      <trkpt lat="44.14843" lon="5.3345">
        <ele>1382.898</ele>
        <time>2013-05-06T12:31:18Z</time>
      </trkpt>
      <trkpt lat="44.14866" lon="5.33444">
        <ele>1384.615</ele>
        <time>2013-05-06T12:31:25Z</time>
      </trkpt>
      <trkpt lat="44.14892" lon="5.33438">
        <ele>1386.449</ele>
        <time>2013-05-06T12:31:33Z</time>
      </trkpt>
      <trkpt lat="44.14919" lon="5.33443">
        <ele>1388.195</ele>
        <time>2013-05-06T12:31:41Z</time>
      </trkpt>
      <trkpt lat="44.14935" lon="5.33427">
        <ele>1390.237</ele>
        <time>2013-05-06T12:31:48Z</time>
      </trkpt>
      <trkpt lat="44.14944" lon="5.33409">
        <ele>1390.627</ele>
        <time>2013-05-06T12:31:53Z</time>
      </trkpt>
      <trkpt lat="44.14938" lon="5.33392">
        <ele>1391.943</ele>
        <time>2013-05-06T12:31:57Z</time>
      </trkpt>
      <trkpt lat="44.14915" lon="5.33353">
        <ele>1393.559</ele>
        <time>2013-05-06T12:32:05Z</time>
      </trkpt>
      <trkpt lat="44.14899" lon="5.33361">
        <ele>1393.302</ele>
        <time>2013-05-06T12:32:14Z</time>
      </trkpt>
      <trkpt lat="44.1489" lon="5.33286">
        <ele>1392.737</ele>
        <time>2013-05-06T12:32:19Z</time>
      </trkpt>
      <trkpt lat="44.14891" lon="5.33277">
        <ele>1393.073</ele>
        <time>2013-05-06T12:32:21Z</time>
      </trkpt>
      <trkpt lat="44.149" lon="5.33267">
        <ele>1394.527</ele>
        <time>2013-05-06T12:32:25Z</time>
      </trkpt>
      <trkpt lat="44.14911" lon="5.33266">
        <ele>1395.646</ele>
        <time>2013-05-06T12:32:28Z</time>
      </trkpt>
      <trkpt lat="44.14932" lon="5.33261">
        <ele>1395.299</ele>
        <time>2013-05-06T12:32:34Z</time>
      </trkpt>
      <trkpt lat="44.14932" lon="5.33235">
        <ele>1395.263</ele>
        <time>2013-05-06T12:32:40Z</time>
      </trkpt>
      <trkpt lat="44.14931" lon="5.3323">
        <ele>1394.974</ele>
        <time>2013-05-06T12:32:41Z</time>
      </trkpt>
      <trkpt lat="44.14918" lon="5.33167">
        <ele>1395.088</ele>
        <time>2013-05-06T12:32:50Z</time>
      </trkpt>
      <trkpt lat="44.14908" lon="5.3312">
        <ele>1396.924</ele>
        <time>2013-05-06T12:32:58Z</time>
      </trkpt>
      <trkpt lat="44.14898" lon="5.33075">
        <ele>1396.762</ele>
        <time>2013-05-06T12:33:07Z</time>
      </trkpt>
      <trkpt lat="44.14885" lon="5.33011">
        <ele>1396.775</ele>
        <time>2013-05-06T12:33:17Z</time>
      </trkpt>
      <trkpt lat="44.14883" lon="5.33004">
        <ele>1396.953</ele>
        <time>2013-05-06T12:33:18Z</time>
      </trkpt>
      <trkpt lat="44.14885" lon="5.32941">
        <ele>1397.175</ele>
        <time>2013-05-06T12:33:27Z</time>
      </trkpt>
      <trkpt lat="44.14886" lon="5.32919">
        <ele>1396.432</ele>
        <time>2013-05-06T12:33:30Z</time>
      </trkpt>
      <trkpt lat="44.14888" lon="5.32883">
        <ele>1396.714</ele>
        <time>2013-05-06T12:33:35Z</time>
      </trkpt>
      <trkpt lat="44.14889" lon="5.32867">
        <ele>1397.914</ele>
        <time>2013-05-06T12:33:37Z</time>
      </trkpt>
      <trkpt lat="44.1489" lon="5.32843">
        <ele>1397.662</ele>
        <time>2013-05-06T12:33:40Z</time>
      </trkpt>
      <trkpt lat="44.14888" lon="5.32828">
        <ele>1397.344</ele>
        <time>2013-05-06T12:33:42Z</time>
      </trkpt>
      <trkpt lat="44.14877" lon="5.32776">
        <ele>1396.754</ele>
        <time>2013-05-06T12:33:49Z</time>
      </trkpt>
      <trkpt lat="44.14873" lon="5.32733">
        <ele>1397.274</ele>
        <time>2013-05-06T12:33:55Z</time>
      </trkpt>
      <trkpt lat="44.1488" lon="5.32694">
        <ele>1397.777</ele>
        <time>2013-05-06T12:34:01Z</time>
      </trkpt>
      <trkpt lat="44.14897" lon="5.32683">
        <ele>1398.433</ele>
        <time>2013-05-06T12:34:05Z</time>
      </trkpt>
      <trkpt lat="44.14917" lon="5.32692">
        <ele>1398.525</ele>
        <time>2013-05-06T12:34:09Z</time>
      </trkpt>
      <trkpt lat="44.14968" lon="5.32722">
        <ele>1394.792</ele>
        <time>2013-05-06T12:34:19Z</time>
      </trkpt>
      <trkpt lat="44.14986" lon="5.32732">
        <ele>1398.158</ele>
        <time>2013-05-06T12:34:23Z</time>
      </trkpt>
      <trkpt lat="44.14991" lon="5.32735">
        <ele>1398.435</ele>
        <time>2013-05-06T12:34:24Z</time>
      </trkpt>
      <trkpt lat="44.15045" lon="5.32763">
        <ele>1400.417</ele>
        <time>2013-05-06T12:34:35Z</time>
      </trkpt>
      <trkpt lat="44.15095" lon="5.32783">
        <ele>1401.128</ele>
        <time>2013-05-06T12:34:45Z</time>
      </trkpt>
      <trkpt lat="44.15138" lon="5.3279">
        <ele>1395.581</ele>
        <time>2013-05-06T12:34:53Z</time>
      </trkpt>
      <trkpt lat="44.15143" lon="5.32791">
        <ele>1396.31</ele>
        <time>2013-05-06T12:34:54Z</time>
      </trkpt>
      <trkpt lat="44.15164" lon="5.32794">
        <ele>1399.124</ele>
        <time>2013-05-06T12:34:58Z</time>
      </trkpt>
      <trkpt lat="44.15195" lon="5.32799">
        <ele>1400.546</ele>
        <time>2013-05-06T12:35:04Z</time>
      </trkpt>
      <trkpt lat="44.15238" lon="5.32801">
        <ele>1400.845</ele>
        <time>2013-05-06T12:35:12Z</time>
      </trkpt>
      <trkpt lat="44.15273" lon="5.32802">
        <ele>1402.5</ele>
        <time>2013-05-06T12:35:19Z</time>
      </trkpt>
      <trkpt lat="44.15317" lon="5.32791">
        <ele>1403.59</ele>
        <time>2013-05-06T12:35:28Z</time>
      </trkpt>
      <trkpt lat="44.15331" lon="5.32778">
        <ele>1404.792</ele>
        <time>2013-05-06T12:35:32Z</time>
      </trkpt>
      <trkpt lat="44.15334" lon="5.32773">
        <ele>1405.037</ele>
        <time>2013-05-06T12:35:33Z</time>
      </trkpt>
      <trkpt lat="44.15326" lon="5.3275">
        <ele>1404.875</ele>
        <time>2013-05-06T12:35:36Z</time>
      </trkpt>
      <trkpt lat="44.15316" lon="5.32746">
        <ele>1405.19</ele>
        <time>2013-05-06T12:35:38Z</time>
      </trkpt>
      <trkpt lat="44.15242" lon="5.32709">
        <ele>1405.221</ele>
        <time>2013-05-06T12:35:51Z</time>
      </trkpt>
      <trkpt lat="44.15211" lon="5.32689">
        <ele>1406.244</ele>
        <time>2013-05-06T12:35:57Z</time>
      </trkpt>
      <trkpt lat="44.15171" lon="5.32656">
        <ele>1406.293</ele>
        <time>2013-05-06T12:36:05Z</time>
      </trkpt>
      <trkpt lat="44.15162" lon="5.32644">
        <ele>1406.41</ele>
        <time>2013-05-06T12:36:07Z</time>
      </trkpt>
      <trkpt lat="44.15129" lon="5.32592">
        <ele>1407.8</ele>
        <time>2013-05-06T12:36:15Z</time>
      </trkpt>
      <trkpt lat="44.15102" lon="5.32553">
        <ele>1407.029</ele>
        <time>2013-05-06T12:36:22Z</time>
      </trkpt>
      <trkpt lat="44.15064" lon="5.32506">
        <ele>1408.167</ele>
        <time>2013-05-06T12:36:31Z</time>
      </trkpt>
      <trkpt lat="44.15018" lon="5.32458">
        <ele>1407.516</ele>
        <time>2013-05-06T12:36:41Z</time>
      </trkpt>
      <trkpt lat="44.14969" lon="5.32417">
        <ele>1408.908</ele>
        <time>2013-05-06T12:36:51Z</time>
      </trkpt>
      <trkpt lat="44.14916" lon="5.32375">
        <ele>1409.694</ele>
        <time>2013-05-06T12:37:01Z</time>
      </trkpt>
      <trkpt lat="44.14879" lon="5.32354">
        <ele>1409.514</ele>
        <time>2013-05-06T12:37:09Z</time>
      </trkpt>
      <trkpt lat="44.14875" lon="5.32349">
        <ele>1409.881</ele>
        <time>2013-05-06T12:37:10Z</time>
      </trkpt>
      <trkpt lat="44.14867" lon="5.32341">
        <ele>1409.418</ele>
        <time>2013-05-06T12:37:12Z</time>
      </trkpt>
      <trkpt lat="44.14854" lon="5.32327">
        <ele>1409.347</ele>
        <time>2013-05-06T12:37:15Z</time>
      </trkpt>
      <trkpt lat="44.14845" lon="5.32302">
        <ele>1410.794</ele>
        <time>2013-05-06T12:37:19Z</time>
      </trkpt>
      <trkpt lat="44.14838" lon="5.32279">
        <ele>1411.535</ele>
        <time>2013-05-06T12:37:23Z</time>
      </trkpt>
      <trkpt lat="44.14837" lon="5.32265">
        <ele>1411.617</ele>
        <time>2013-05-06T12:37:25Z</time>
      </trkpt>
      <trkpt lat="44.14835" lon="5.32244">
        <ele>1411.698</ele>
        <time>2013-05-06T12:37:28Z</time>
      </trkpt>
      <trkpt lat="44.14842" lon="5.32217">
        <ele>1411.677</ele>
        <time>2013-05-06T12:37:33Z</time>
      </trkpt>
      <trkpt lat="44.14846" lon="5.32205">
        <ele>1411.629</ele>
        <time>2013-05-06T12:37:35Z</time>
      </trkpt>
      <trkpt lat="44.14855" lon="5.3218">
        <ele>1410.3</ele>
        <time>2013-05-06T12:37:39Z</time>
      </trkpt>
      <trkpt lat="44.14867" lon="5.32149">
        <ele>1411.035</ele>
        <time>2013-05-06T12:37:44Z</time>
      </trkpt>
      <trkpt lat="44.14875" lon="5.32126">
        <ele>1409.865</ele>
        <time>2013-05-06T12:37:48Z</time>
      </trkpt>
      <trkpt lat="44.14876" lon="5.3212">
        <ele>1410.463</ele>
        <time>2013-05-06T12:37:49Z</time>
      </trkpt>
      <trkpt lat="44.14891" lon="5.3206">
        <ele>1412.791</ele>
        <time>2013-05-06T12:37:58Z</time>
      </trkpt>
      <trkpt lat="44.14896" lon="5.32016">
        <ele>1414.06</ele>
        <time>2013-05-06T12:38:04Z</time>
      </trkpt>
      <trkpt lat="44.14897" lon="5.31993">
        <ele>1414.57</ele>
        <time>2013-05-06T12:38:07Z</time>
      </trkpt>
      <trkpt lat="44.14899" lon="5.31949">
        <ele>1414.228</ele>
        <time>2013-05-06T12:38:13Z</time>
      </trkpt>
      <trkpt lat="44.14902" lon="5.31881">
        <ele>1414.872</ele>
        <time>2013-05-06T12:38:22Z</time>
      </trkpt>
      <trkpt lat="44.14909" lon="5.31828">
        <ele>1414.737</ele>
        <time>2013-05-06T12:38:29Z</time>
      </trkpt>
      <trkpt lat="44.14921" lon="5.31793">
        <ele>1414.556</ele>
        <time>2013-05-06T12:38:34Z</time>
      </trkpt>
      <trkpt lat="44.14941" lon="5.31769">
        <ele>1414.202</ele>
        <time>2013-05-06T12:38:39Z</time>
      </trkpt>
      <trkpt lat="44.14959" lon="5.3177">
        <ele>1414.829</ele>
        <time>2013-05-06T12:38:43Z</time>
      </trkpt>
      <trkpt lat="44.15014" lon="5.3179">
        <ele>1414.327</ele>
        <time>2013-05-06T12:38:55Z</time>
      </trkpt>
      <trkpt lat="44.15057" lon="5.31805">
        <ele>1413.584</ele>
        <time>2013-05-06T12:39:04Z</time>
      </trkpt>
      <trkpt lat="44.15084" lon="5.31819">
        <ele>1415.077</ele>
        <time>2013-05-06T12:39:10Z</time>
      </trkpt>
      <trkpt lat="44.1513" lon="5.31848">
        <ele>1416.828</ele>
        <time>2013-05-06T12:39:20Z</time>
      </trkpt>
      <trkpt lat="44.15161" lon="5.31877">
        <ele>1417.087</ele>
        <time>2013-05-06T12:39:28Z</time>
      </trkpt>
      <trkpt lat="44.15179" lon="5.31893">
        <ele>1417.603</ele>
        <time>2013-05-06T12:39:34Z</time>
      </trkpt>
      <trkpt lat="44.15195" lon="5.31889">
        <ele>1417.118</ele>
        <time>2013-05-06T12:39:39Z</time>
      </trkpt>
      <trkpt lat="44.15195" lon="5.31889">
        <ele>1418.445</ele>
        <time>2013-05-06T12:39:42Z</time>
      </trkpt>
      <trkpt lat="44.15195" lon="5.31889">
        <ele>1418.618</ele>
        <time>2013-05-06T12:39:47Z</time>
      </trkpt>
      <trkpt lat="44.15195" lon="5.31889">
        <ele>1418.892</ele>
        <time>2013-05-06T12:39:55Z</time>
      </trkpt>
      <trkpt lat="44.15195" lon="5.31889">
        <ele>1419.247</ele>
        <time>2013-05-06T12:41:03Z</time>
      </trkpt>
    </trkseg>
  </trk>
</gpx>